PWSweather.com
Personal Weather Stations
Station Observations
EI4HQ
Cork Harbour, CobhIE

Cork HarbourCobhIE

Lat: 51.85, Lon: -8.29

Elevation: 252

Station Type: Davis Vantage Pro2

http://www.corkharbourweather.ie

High Low Average
Temperature 45.1°F7.3°C 34.0°F1.1°C 39.4°F4.1°C
Dew Point 38.1°F3.4°C 30.6°F-0.8°C 34.5°F1.4°C
Winds 25.0 mph 40.2 kmh 2.0 mph 3.2 kmh 7.0 mph W11.3 kmh W
Wind Gusts 39.0 mph62.8 kmh 4.0 mph6.4 kmh 14.0 mph22.5 kmh
Humidity 94% 62% 83%
Pressure 29.65 in1004.1 mb 29.25 in990.5 mb -
Precipitation 0.04 in1.0 mm - -
Hour Temp Dew Point Humidity Winds Wind Gusts Pressure Precip Precip Rate Daily Precip Total
12:00 AM 40.3°F4.6°C 38.1°F3.4°C 92% 10.0 mph W16.1 kmh W 19.0 mph30.6 kmh 29.25 in990.5 mb 0.00 in0.0 mm 0.00 in0.0 mm 0.00 in0.0 mm
12:03 AM 39.9°F4.4°C 37.9°F3.3°C 92% 10.0 mph W16.1 kmh W 20.0 mph32.2 kmh 29.25 in990.5 mb 0.00 in0.0 mm 0.00 in0.0 mm 0.00 in0.0 mm
12:06 AM 39.7°F4.3°C 37.6°F3.1°C 92% 10.0 mph W16.1 kmh W 20.0 mph32.2 kmh 29.25 in990.5 mb 0.00 in0.0 mm 0.00 in0.0 mm 0.00 in0.0 mm
12:09 AM 39.6°F4.2°C 37.4°F3.0°C 92% 9.0 mph WNW14.5 kmh WNW 20.0 mph32.2 kmh 29.25 in990.5 mb 0.00 in0.0 mm 0.00 in0.0 mm 0.00 in0.0 mm
12:12 AM 39.4°F4.1°C 37.2°F2.9°C 92% 7.0 mph WNW11.3 kmh WNW 18.0 mph29.0 kmh 29.25 in990.5 mb 0.00 in0.0 mm 0.00 in0.0 mm 0.00 in0.0 mm
12:15 AM 39.0°F3.9°C 37.0°F2.8°C 92% 6.0 mph WNW9.7 kmh WNW 18.0 mph29.0 kmh 29.25 in990.5 mb 0.00 in0.0 mm 0.00 in0.0 mm 0.00 in0.0 mm
12:18 AM 38.8°F3.8°C 36.9°F2.7°C 92% 7.0 mph WNW11.3 kmh WNW 17.0 mph27.4 kmh 29.25 in990.5 mb 0.00 in0.0 mm 0.00 in0.0 mm 0.00 in0.0 mm
12:21 AM 38.7°F3.7°C 36.5°F2.5°C 92% 7.0 mph WNW11.3 kmh WNW 17.0 mph27.4 kmh 29.25 in990.5 mb 0.00 in0.0 mm 0.00 in0.0 mm 0.00 in0.0 mm
12:24 AM 38.7°F3.7°C 36.5°F2.5°C 92% 7.0 mph WNW11.3 kmh WNW 17.0 mph27.4 kmh 29.25 in990.5 mb 0.00 in0.0 mm 0.00 in0.0 mm 0.00 in0.0 mm
12:27 AM 38.5°F3.6°C 36.1°F2.3°C 91% 7.0 mph NW11.3 kmh NW 16.0 mph25.7 kmh 29.25 in990.5 mb 0.00 in0.0 mm 0.00 in0.0 mm 0.00 in0.0 mm
12:30 AM 38.3°F3.5°C 36.0°F2.2°C 91% 7.0 mph NW11.3 kmh NW 16.0 mph25.7 kmh 29.25 in990.5 mb 0.00 in0.0 mm 0.00 in0.0 mm 0.00 in0.0 mm
12:33 AM 38.3°F3.5°C 36.0°F2.2°C 91% 6.0 mph NW9.7 kmh NW 13.0 mph20.9 kmh 29.25 in990.5 mb 0.00 in0.0 mm 0.00 in0.0 mm 0.00 in0.0 mm
12:36 AM 38.1°F3.4°C 36.1°F2.3°C 92% 6.0 mph NW9.7 kmh NW 13.0 mph20.9 kmh 29.25 in990.5 mb 0.00 in0.0 mm 0.00 in0.0 mm 0.00 in0.0 mm
12:39 AM 38.1°F3.4°C 36.0°F2.2°C 92% 6.0 mph NW9.7 kmh NW 12.0 mph19.3 kmh 29.25 in990.5 mb 0.00 in0.0 mm 0.00 in0.0 mm 0.00 in0.0 mm
12:42 AM 38.1°F3.4°C 36.0°F2.2°C 92% 6.0 mph NW9.7 kmh NW 12.0 mph19.3 kmh 29.26 in990.9 mb 0.00 in0.0 mm 0.00 in0.0 mm 0.00 in0.0 mm
12:45 AM 38.1°F3.4°C 36.0°F2.2°C 92% 6.0 mph NW9.7 kmh NW 13.0 mph20.9 kmh 29.26 in990.9 mb 0.00 in0.0 mm 0.00 in0.0 mm 0.00 in0.0 mm
12:48 AM 38.1°F3.4°C 36.0°F2.2°C 92% 6.0 mph NW9.7 kmh NW 13.0 mph20.9 kmh 29.26 in990.9 mb 0.00 in0.0 mm 0.00 in0.0 mm 0.00 in0.0 mm
12:51 AM 38.1°F3.4°C 36.0°F2.2°C 92% 5.0 mph NW8.0 kmh NW 13.0 mph20.9 kmh 29.26 in990.9 mb 0.00 in0.0 mm 0.00 in0.0 mm 0.00 in0.0 mm
12:54 AM 38.1°F3.4°C 36.1°F2.3°C 92% 5.0 mph NW8.0 kmh NW 14.0 mph22.5 kmh 29.26 in990.9 mb 0.00 in0.0 mm 0.00 in0.0 mm 0.00 in0.0 mm
12:57 AM 38.1°F3.4°C 36.0°F2.2°C 92% 6.0 mph NW9.7 kmh NW 19.0 mph30.6 kmh 29.26 in990.9 mb 0.00 in0.0 mm 0.00 in0.0 mm 0.00 in0.0 mm
01:00 AM 38.1°F3.4°C 36.0°F2.2°C 92% 7.0 mph NW11.3 kmh NW 19.0 mph30.6 kmh 29.26 in990.9 mb 0.00 in0.0 mm 0.00 in0.0 mm 0.00 in0.0 mm
01:03 AM 38.1°F3.4°C 36.0°F2.2°C 92% 7.0 mph NW11.3 kmh NW 19.0 mph30.6 kmh 29.26 in990.9 mb 0.00 in0.0 mm 0.00 in0.0 mm 0.00 in0.0 mm
01:06 AM 38.1°F3.4°C 36.0°F2.2°C 92% 7.0 mph NW11.3 kmh NW 16.0 mph25.7 kmh 29.26 in990.9 mb 0.00 in0.0 mm 0.00 in0.0 mm 0.00 in0.0 mm
01:09 AM 37.9°F3.3°C 36.0°F2.2°C 92% 7.0 mph NW11.3 kmh NW 17.0 mph27.4 kmh 29.27 in991.2 mb 0.00 in0.0 mm 0.00 in0.0 mm 0.00 in0.0 mm
01:12 AM 37.9°F3.3°C 35.8°F2.1°C 92% 7.0 mph NW11.3 kmh NW 19.0 mph30.6 kmh 29.27 in991.2 mb 0.00 in0.0 mm 0.00 in0.0 mm 0.00 in0.0 mm
01:15 AM 37.9°F3.3°C 35.8°F2.1°C 92% 7.0 mph NW11.3 kmh NW 19.0 mph30.6 kmh 29.27 in991.2 mb 0.00 in0.0 mm 0.00 in0.0 mm 0.00 in0.0 mm
01:18 AM 37.9°F3.3°C 35.8°F2.1°C 92% 7.0 mph NW11.3 kmh NW 19.0 mph30.6 kmh 29.27 in991.2 mb 0.00 in0.0 mm 0.00 in0.0 mm 0.00 in0.0 mm
01:21 AM 37.8°F3.2°C 35.6°F2.0°C 92% 8.0 mph NW12.9 kmh NW 15.0 mph24.1 kmh 29.27 in991.2 mb 0.00 in0.0 mm 0.00 in0.0 mm 0.00 in0.0 mm
01:24 AM 37.8°F3.2°C 35.6°F2.0°C 92% 9.0 mph NNW14.5 kmh NNW 15.0 mph24.1 kmh 29.27 in991.2 mb 0.00 in0.0 mm 0.00 in0.0 mm 0.00 in0.0 mm
01:27 AM 37.8°F3.2°C 35.6°F2.0°C 92% 9.0 mph NNW14.5 kmh NNW 19.0 mph30.6 kmh 29.27 in991.2 mb 0.00 in0.0 mm 0.00 in0.0 mm 0.00 in0.0 mm
01:30 AM 37.8°F3.2°C 35.6°F2.0°C 92% 9.0 mph NNW14.5 kmh NNW 19.0 mph30.6 kmh 29.27 in991.2 mb 0.00 in0.0 mm 0.00 in0.0 mm 0.00 in0.0 mm
01:33 AM 37.6°F3.1°C 35.4°F1.9°C 92% 10.0 mph NW16.1 kmh NW 19.0 mph30.6 kmh 29.27 in991.2 mb 0.00 in0.0 mm 0.00 in0.0 mm 0.00 in0.0 mm
01:36 AM 37.8°F3.2°C 35.6°F2.0°C 92% 9.0 mph NW14.5 kmh NW 18.0 mph29.0 kmh 29.27 in991.2 mb 0.00 in0.0 mm 0.00 in0.0 mm 0.00 in0.0 mm
01:39 AM 37.8°F3.2°C 35.6°F2.0°C 92% 9.0 mph NW14.5 kmh NW 17.0 mph27.4 kmh 29.27 in991.2 mb 0.00 in0.0 mm 0.00 in0.0 mm 0.00 in0.0 mm
01:42 AM 37.8°F3.2°C 35.6°F2.0°C 92% 8.0 mph NW12.9 kmh NW 19.0 mph30.6 kmh 29.27 in991.2 mb 0.00 in0.0 mm 0.00 in0.0 mm 0.00 in0.0 mm
01:45 AM 37.6°F3.1°C 35.4°F1.9°C 92% 8.0 mph NW12.9 kmh NW 19.0 mph30.6 kmh 29.27 in991.2 mb 0.00 in0.0 mm 0.00 in0.0 mm 0.00 in0.0 mm
01:48 AM 37.6°F3.1°C 35.4°F1.9°C 92% 8.0 mph NW12.9 kmh NW 19.0 mph30.6 kmh 29.27 in991.2 mb 0.00 in0.0 mm 0.00 in0.0 mm 0.00 in0.0 mm
01:51 AM 37.6°F3.1°C 35.4°F1.9°C 92% 8.0 mph NW12.9 kmh NW 16.0 mph25.7 kmh 29.27 in991.2 mb 0.00 in0.0 mm 0.00 in0.0 mm 0.00 in0.0 mm
01:54 AM 37.6°F3.1°C 35.4°F1.9°C 92% 8.0 mph NW12.9 kmh NW 16.0 mph25.7 kmh 29.27 in991.2 mb 0.00 in0.0 mm 0.00 in0.0 mm 0.00 in0.0 mm
01:57 AM 37.6°F3.1°C 35.4°F1.9°C 92% 8.0 mph NW12.9 kmh NW 16.0 mph25.7 kmh 29.28 in991.5 mb 0.00 in0.0 mm 0.00 in0.0 mm 0.00 in0.0 mm
02:00 AM 37.6°F3.1°C 35.4°F1.9°C 92% 8.0 mph NW12.9 kmh NW 15.0 mph24.1 kmh 29.28 in991.5 mb 0.00 in0.0 mm 0.00 in0.0 mm 0.00 in0.0 mm
02:03 AM 37.6°F3.1°C 35.4°F1.9°C 92% 8.0 mph NW12.9 kmh NW 18.0 mph29.0 kmh 29.28 in991.5 mb 0.00 in0.0 mm 0.00 in0.0 mm 0.00 in0.0 mm
02:06 AM 37.6°F3.1°C 35.4°F1.9°C 92% 8.0 mph NW12.9 kmh NW 18.0 mph29.0 kmh 29.28 in991.5 mb 0.00 in0.0 mm 0.00 in0.0 mm 0.00 in0.0 mm
02:09 AM 37.6°F3.1°C 35.8°F2.1°C 93% 8.0 mph NW12.9 kmh NW 18.0 mph29.0 kmh 29.28 in991.5 mb 0.00 in0.0 mm 0.00 in0.0 mm 0.00 in0.0 mm
02:12 AM 37.6°F3.1°C 35.6°F2.0°C 93% 8.0 mph NW12.9 kmh NW 17.0 mph27.4 kmh 29.28 in991.5 mb 0.00 in0.0 mm 0.00 in0.0 mm 0.00 in0.0 mm
02:15 AM 37.6°F3.1°C 35.6°F2.0°C 93% 8.0 mph NW12.9 kmh NW 16.0 mph25.7 kmh 29.29 in991.9 mb 0.00 in0.0 mm 0.00 in0.0 mm 0.00 in0.0 mm
02:18 AM 37.6°F3.1°C 35.6°F2.0°C 93% 7.0 mph NW11.3 kmh NW 16.0 mph25.7 kmh 29.29 in991.9 mb 0.00 in0.0 mm 0.00 in0.0 mm 0.00 in0.0 mm
02:21 AM 37.6°F3.1°C 35.8°F2.1°C 93% 7.0 mph NW11.3 kmh NW 18.0 mph29.0 kmh 29.29 in991.9 mb 0.00 in0.0 mm 0.00 in0.0 mm 0.00 in0.0 mm
02:24 AM 37.6°F3.1°C 35.8°F2.1°C 93% 7.0 mph NW11.3 kmh NW 18.0 mph29.0 kmh 29.29 in991.9 mb 0.00 in0.0 mm 0.00 in0.0 mm 0.00 in0.0 mm
02:27 AM 37.6°F3.1°C 35.8°F2.1°C 93% 7.0 mph NW11.3 kmh NW 18.0 mph29.0 kmh 29.29 in991.9 mb 0.00 in0.0 mm 0.00 in0.0 mm 0.00 in0.0 mm
02:30 AM 37.6°F3.1°C 35.8°F2.1°C 93% 7.0 mph NW11.3 kmh NW 16.0 mph25.7 kmh 29.29 in991.9 mb 0.00 in0.0 mm 0.00 in0.0 mm 0.00 in0.0 mm
02:33 AM 37.8°F3.2°C 35.8°F2.1°C 93% 6.0 mph NW9.7 kmh NW 13.0 mph20.9 kmh 29.30 in992.2 mb 0.00 in0.0 mm 0.00 in0.0 mm 0.00 in0.0 mm
02:36 AM 37.8°F3.2°C 35.8°F2.1°C 93% 5.0 mph NW8.0 kmh NW 13.0 mph20.9 kmh 29.30 in992.2 mb 0.00 in0.0 mm 0.00 in0.0 mm 0.00 in0.0 mm
02:39 AM 37.8°F3.2°C 35.8°F2.1°C 93% 5.0 mph NW8.0 kmh NW 13.0 mph20.9 kmh 29.30 in992.2 mb 0.00 in0.0 mm 0.00 in0.0 mm 0.00 in0.0 mm
02:42 AM 37.8°F3.2°C 35.8°F2.1°C 93% 4.0 mph NW6.4 kmh NW 13.0 mph20.9 kmh 29.30 in992.2 mb 0.00 in0.0 mm 0.00 in0.0 mm 0.00 in0.0 mm
02:45 AM 37.8°F3.2°C 35.8°F2.1°C 93% 4.0 mph NW6.4 kmh NW 15.0 mph24.1 kmh 29.30 in992.2 mb 0.00 in0.0 mm 0.00 in0.0 mm 0.00 in0.0 mm
02:48 AM 37.8°F3.2°C 36.0°F2.2°C 93% 4.0 mph NW6.4 kmh NW 15.0 mph24.1 kmh 29.30 in992.2 mb 0.00 in0.0 mm 0.00 in0.0 mm 0.00 in0.0 mm
02:51 AM 37.8°F3.2°C 36.0°F2.2°C 93% 6.0 mph NW9.7 kmh NW 15.0 mph24.1 kmh 29.30 in992.2 mb 0.00 in0.0 mm 0.00 in0.0 mm 0.00 in0.0 mm
02:54 AM 37.8°F3.2°C 36.0°F2.2°C 93% 7.0 mph NW11.3 kmh NW 17.0 mph27.4 kmh 29.30 in992.2 mb 0.00 in0.0 mm 0.00 in0.0 mm 0.00 in0.0 mm
02:57 AM 37.8°F3.2°C 36.0°F2.2°C 93% 7.0 mph NW11.3 kmh NW 17.0 mph27.4 kmh 29.30 in992.2 mb 0.00 in0.0 mm 0.00 in0.0 mm 0.00 in0.0 mm
03:00 AM 37.8°F3.2°C 36.0°F2.2°C 93% 6.0 mph NW9.7 kmh NW 17.0 mph27.4 kmh 29.31 in992.6 mb 0.00 in0.0 mm 0.00 in0.0 mm 0.00 in0.0 mm
03:03 AM 37.8°F3.2°C 36.0°F2.2°C 93% 5.0 mph NW8.0 kmh NW 17.0 mph27.4 kmh 29.31 in992.6 mb 0.00 in0.0 mm 0.00 in0.0 mm 0.00 in0.0 mm
03:06 AM 37.8°F3.2°C 36.0°F2.2°C 93% 4.0 mph NW6.4 kmh NW 11.0 mph17.7 kmh 29.31 in992.6 mb 0.00 in0.0 mm 0.00 in0.0 mm 0.00 in0.0 mm
03:09 AM 37.8°F3.2°C 36.0°F2.2°C 93% 5.0 mph NW8.0 kmh NW 11.0 mph17.7 kmh 29.31 in992.6 mb 0.00 in0.0 mm 0.00 in0.0 mm 0.00 in0.0 mm
03:12 AM 37.9°F3.3°C 36.1°F2.3°C 93% 5.0 mph NW8.0 kmh NW 11.0 mph17.7 kmh 29.31 in992.6 mb 0.00 in0.0 mm 0.00 in0.0 mm 0.00 in0.0 mm
03:15 AM 37.9°F3.3°C 36.1°F2.3°C 93% 5.0 mph NW8.0 kmh NW 12.0 mph19.3 kmh 29.31 in992.6 mb 0.00 in0.0 mm 0.00 in0.0 mm 0.00 in0.0 mm
03:18 AM 37.9°F3.3°C 36.1°F2.3°C 93% 6.0 mph NW9.7 kmh NW 16.0 mph25.7 kmh 29.31 in992.6 mb 0.00 in0.0 mm 0.00 in0.0 mm 0.00 in0.0 mm
03:21 AM 38.1°F3.4°C 36.3°F2.4°C 93% 6.0 mph NW9.7 kmh NW 16.0 mph25.7 kmh 29.31 in992.6 mb 0.00 in0.0 mm 0.00 in0.0 mm 0.00 in0.0 mm
03:24 AM 38.1°F3.4°C 36.3°F2.4°C 93% 7.0 mph NW11.3 kmh NW 16.0 mph25.7 kmh 29.31 in992.6 mb 0.00 in0.0 mm 0.00 in0.0 mm 0.00 in0.0 mm
03:27 AM 38.1°F3.4°C 36.3°F2.4°C 93% 7.0 mph NW11.3 kmh NW 14.0 mph22.5 kmh 29.32 in992.9 mb 0.00 in0.0 mm 0.00 in0.0 mm 0.00 in0.0 mm
03:30 AM 38.3°F3.5°C 36.1°F2.3°C 92% 7.0 mph NW11.3 kmh NW 14.0 mph22.5 kmh 29.32 in992.9 mb 0.00 in0.0 mm 0.00 in0.0 mm 0.00 in0.0 mm
03:33 AM 38.3°F3.5°C 36.1°F2.3°C 92% 7.0 mph NW11.3 kmh NW 16.0 mph25.7 kmh 29.32 in992.9 mb 0.00 in0.0 mm 0.00 in0.0 mm 0.00 in0.0 mm
03:36 AM 38.3°F3.5°C 36.1°F2.3°C 92% 6.0 mph NW9.7 kmh NW 16.0 mph25.7 kmh 29.32 in992.9 mb 0.00 in0.0 mm 0.00 in0.0 mm 0.00 in0.0 mm
03:39 AM 38.1°F3.4°C 35.8°F2.1°C 91% 6.0 mph NW9.7 kmh NW 16.0 mph25.7 kmh 29.33 in993.2 mb 0.00 in0.0 mm 0.00 in0.0 mm 0.00 in0.0 mm
03:42 AM 38.1°F3.4°C 35.8°F2.1°C 91% 5.0 mph NW8.0 kmh NW 12.0 mph19.3 kmh 29.33 in993.2 mb 0.00 in0.0 mm 0.00 in0.0 mm 0.00 in0.0 mm
03:45 AM 38.1°F3.4°C 35.8°F2.1°C 91% 5.0 mph NW8.0 kmh NW 11.0 mph17.7 kmh 29.33 in993.2 mb 0.00 in0.0 mm 0.00 in0.0 mm 0.00 in0.0 mm
03:48 AM 38.1°F3.4°C 35.4°F1.9°C 90% 5.0 mph NW8.0 kmh NW 11.0 mph17.7 kmh 29.33 in993.2 mb 0.00 in0.0 mm 0.00 in0.0 mm 0.00 in0.0 mm
03:51 AM 37.9°F3.3°C 35.2°F1.8°C 90% 5.0 mph NW8.0 kmh NW 12.0 mph19.3 kmh 29.33 in993.2 mb 0.00 in0.0 mm 0.00 in0.0 mm 0.00 in0.0 mm
03:54 AM 37.8°F3.2°C 35.1°F1.7°C 90% 5.0 mph NW8.0 kmh NW 12.0 mph19.3 kmh 29.33 in993.2 mb 0.00 in0.0 mm 0.00 in0.0 mm 0.00 in0.0 mm
03:57 AM 37.8°F3.2°C 35.1°F1.7°C 90% 5.0 mph NW8.0 kmh NW 13.0 mph20.9 kmh 29.33 in993.2 mb 0.00 in0.0 mm 0.00 in0.0 mm 0.00 in0.0 mm
04:00 AM 37.8°F3.2°C 34.7°F1.5°C 89% 5.0 mph NW8.0 kmh NW 15.0 mph24.1 kmh 29.34 in993.6 mb 0.00 in0.0 mm 0.00 in0.0 mm 0.00 in0.0 mm
04:03 AM 37.8°F3.2°C 34.7°F1.5°C 89% 6.0 mph NW9.7 kmh NW 15.0 mph24.1 kmh 29.34 in993.6 mb 0.00 in0.0 mm 0.00 in0.0 mm 0.00 in0.0 mm
04:06 AM 37.6°F3.1°C 34.7°F1.5°C 89% 5.0 mph NW8.0 kmh NW 15.0 mph24.1 kmh 29.34 in993.6 mb 0.00 in0.0 mm 0.00 in0.0 mm 0.00 in0.0 mm
04:09 AM 37.6°F3.1°C 34.5°F1.4°C 89% 5.0 mph NW8.0 kmh NW 15.0 mph24.1 kmh 29.34 in993.6 mb 0.00 in0.0 mm 0.00 in0.0 mm 0.00 in0.0 mm
04:12 AM 37.4°F3.0°C 34.5°F1.4°C 89% 5.0 mph NW8.0 kmh NW 11.0 mph17.7 kmh 29.35 in993.9 mb 0.00 in0.0 mm 0.00 in0.0 mm 0.00 in0.0 mm
04:15 AM 37.4°F3.0°C 34.5°F1.4°C 89% 5.0 mph NW8.0 kmh NW 11.0 mph17.7 kmh 29.35 in993.9 mb 0.00 in0.0 mm 0.00 in0.0 mm 0.00 in0.0 mm
04:18 AM 37.2°F2.9°C 34.3°F1.3°C 89% 5.0 mph NW8.0 kmh NW 11.0 mph17.7 kmh 29.35 in993.9 mb 0.00 in0.0 mm 0.00 in0.0 mm 0.00 in0.0 mm
04:21 AM 37.2°F2.9°C 34.3°F1.3°C 89% 5.0 mph NW8.0 kmh NW 11.0 mph17.7 kmh 29.35 in993.9 mb 0.00 in0.0 mm 0.00 in0.0 mm 0.00 in0.0 mm
04:24 AM 37.2°F2.9°C 34.3°F1.3°C 89% 5.0 mph NW8.0 kmh NW 11.0 mph17.7 kmh 29.35 in993.9 mb 0.00 in0.0 mm 0.00 in0.0 mm 0.00 in0.0 mm
04:27 AM 37.2°F2.9°C 34.3°F1.3°C 89% 5.0 mph NW8.0 kmh NW 10.0 mph16.1 kmh 29.35 in993.9 mb 0.00 in0.0 mm 0.00 in0.0 mm 0.00 in0.0 mm
04:30 AM 37.2°F2.9°C 34.3°F1.3°C 89% 5.0 mph NW8.0 kmh NW 11.0 mph17.7 kmh 29.35 in993.9 mb 0.00 in0.0 mm 0.00 in0.0 mm 0.00 in0.0 mm
04:33 AM 37.2°F2.9°C 34.3°F1.3°C 89% 5.0 mph NW8.0 kmh NW 11.0 mph17.7 kmh 29.36 in994.2 mb 0.00 in0.0 mm 0.00 in0.0 mm 0.00 in0.0 mm
04:36 AM 37.0°F2.8°C 34.2°F1.2°C 89% 4.0 mph NW6.4 kmh NW 11.0 mph17.7 kmh 29.36 in994.2 mb 0.00 in0.0 mm 0.00 in0.0 mm 0.00 in0.0 mm
04:39 AM 37.0°F2.8°C 34.2°F1.2°C 89% 4.0 mph NW6.4 kmh NW 10.0 mph16.1 kmh 29.36 in994.2 mb 0.00 in0.0 mm 0.00 in0.0 mm 0.00 in0.0 mm
04:42 AM 37.0°F2.8°C 34.0°F1.1°C 89% 4.0 mph NW6.4 kmh NW 10.0 mph16.1 kmh 29.36 in994.2 mb 0.00 in0.0 mm 0.00 in0.0 mm 0.00 in0.0 mm
04:45 AM 37.0°F2.8°C 34.0°F1.1°C 89% 4.0 mph NW6.4 kmh NW 10.0 mph16.1 kmh 29.36 in994.2 mb 0.00 in0.0 mm 0.00 in0.0 mm 0.00 in0.0 mm
04:48 AM 37.0°F2.8°C 34.0°F1.1°C 89% 4.0 mph NW6.4 kmh NW 10.0 mph16.1 kmh 29.36 in994.2 mb 0.00 in0.0 mm 0.00 in0.0 mm 0.00 in0.0 mm
04:51 AM 36.9°F2.7°C 34.0°F1.1°C 89% 4.0 mph NW6.4 kmh NW 10.0 mph16.1 kmh 29.37 in994.6 mb 0.00 in0.0 mm 0.00 in0.0 mm 0.00 in0.0 mm
04:54 AM 36.9°F2.7°C 34.2°F1.2°C 90% 5.0 mph NW8.0 kmh NW 11.0 mph17.7 kmh 29.37 in994.6 mb 0.00 in0.0 mm 0.00 in0.0 mm 0.00 in0.0 mm
04:57 AM 37.0°F2.8°C 34.5°F1.4°C 90% 5.0 mph NW8.0 kmh NW 11.0 mph17.7 kmh 29.37 in994.6 mb 0.00 in0.0 mm 0.00 in0.0 mm 0.00 in0.0 mm
05:00 AM 37.2°F2.9°C 34.7°F1.5°C 90% 6.0 mph NW9.7 kmh NW 13.0 mph20.9 kmh 29.37 in994.6 mb 0.00 in0.0 mm 0.00 in0.0 mm 0.00 in0.0 mm
05:03 AM 37.2°F2.9°C 34.7°F1.5°C 90% 7.0 mph NW11.3 kmh NW 18.0 mph29.0 kmh 29.38 in994.9 mb 0.01 in0.3 mm 0.20 in5.1 mm 0.01 in0.3 mm
05:06 AM 37.0°F2.8°C 34.5°F1.4°C 90% 8.0 mph NW12.9 kmh NW 18.0 mph29.0 kmh 29.38 in994.9 mb 0.02 in0.5 mm 0.20 in5.1 mm 0.02 in0.5 mm
05:09 AM 36.9°F2.7°C 34.2°F1.2°C 90% 8.0 mph NW12.9 kmh NW 19.0 mph30.6 kmh 29.38 in994.9 mb 0.02 in0.5 mm 0.00 in0.0 mm 0.02 in0.5 mm
05:12 AM 36.7°F2.6°C 34.0°F1.1°C 90% 8.0 mph NW12.9 kmh NW 19.0 mph30.6 kmh 29.38 in994.9 mb 0.02 in0.5 mm 0.00 in0.0 mm 0.02 in0.5 mm
05:15 AM 36.3°F2.4°C 33.8°F1.0°C 90% 7.0 mph NW11.3 kmh NW 19.0 mph30.6 kmh 29.39 in995.3 mb 0.02 in0.5 mm 0.00 in0.0 mm 0.02 in0.5 mm
05:18 AM 36.3°F2.4°C 34.0°F1.1°C 91% 7.0 mph NW11.3 kmh NW 18.0 mph29.0 kmh 29.39 in995.3 mb 0.02 in0.5 mm 0.00 in0.0 mm 0.02 in0.5 mm
05:21 AM 36.3°F2.4°C 34.0°F1.1°C 91% 7.0 mph NW11.3 kmh NW 18.0 mph29.0 kmh 29.39 in995.3 mb 0.02 in0.5 mm 0.00 in0.0 mm 0.02 in0.5 mm
05:24 AM 36.1°F2.3°C 33.8°F1.0°C 91% 7.0 mph NW11.3 kmh NW 18.0 mph29.0 kmh 29.40 in995.6 mb 0.02 in0.5 mm 0.00 in0.0 mm 0.02 in0.5 mm
05:27 AM 36.1°F2.3°C 34.2°F1.2°C 92% 7.0 mph NW11.3 kmh NW 17.0 mph27.4 kmh 29.40 in995.6 mb 0.02 in0.5 mm 0.00 in0.0 mm 0.02 in0.5 mm
05:30 AM 36.1°F2.3°C 34.2°F1.2°C 92% 8.0 mph NW12.9 kmh NW 17.0 mph27.4 kmh 29.40 in995.6 mb 0.02 in0.5 mm 0.00 in0.0 mm 0.02 in0.5 mm
05:33 AM 36.1°F2.3°C 34.2°F1.2°C 92% 7.0 mph NW11.3 kmh NW 17.0 mph27.4 kmh 29.40 in995.6 mb 0.02 in0.5 mm 0.00 in0.0 mm 0.02 in0.5 mm
05:36 AM 36.1°F2.3°C 34.0°F1.1°C 92% 6.0 mph NW9.7 kmh NW 16.0 mph25.7 kmh 29.41 in995.9 mb 0.02 in0.5 mm 0.00 in0.0 mm 0.02 in0.5 mm
05:39 AM 36.1°F2.3°C 34.2°F1.2°C 92% 6.0 mph NW9.7 kmh NW 16.0 mph25.7 kmh 29.41 in995.9 mb 0.02 in0.5 mm 0.00 in0.0 mm 0.02 in0.5 mm
05:42 AM 36.1°F2.3°C 34.0°F1.1°C 92% 5.0 mph NW8.0 kmh NW 16.0 mph25.7 kmh 29.41 in995.9 mb 0.02 in0.5 mm 0.00 in0.0 mm 0.02 in0.5 mm
05:45 AM 36.1°F2.3°C 34.0°F1.1°C 92% 6.0 mph NW9.7 kmh NW 13.0 mph20.9 kmh 29.41 in995.9 mb 0.02 in0.5 mm 0.00 in0.0 mm 0.02 in0.5 mm
05:48 AM 36.1°F2.3°C 34.0°F1.1°C 92% 6.0 mph NW9.7 kmh NW 13.0 mph20.9 kmh 29.42 in996.3 mb 0.02 in0.5 mm 0.00 in0.0 mm 0.02 in0.5 mm
05:51 AM 36.1°F2.3°C 34.0°F1.1°C 92% 6.0 mph NW9.7 kmh NW 14.0 mph22.5 kmh 29.42 in996.3 mb 0.02 in0.5 mm 0.00 in0.0 mm 0.02 in0.5 mm
05:54 AM 36.0°F2.2°C 34.0°F1.1°C 92% 6.0 mph NW9.7 kmh NW 17.0 mph27.4 kmh 29.42 in996.3 mb 0.02 in0.5 mm 0.00 in0.0 mm 0.02 in0.5 mm
05:57 AM 36.0°F2.2°C 33.8°F1.0°C 92% 7.0 mph NW11.3 kmh NW 17.0 mph27.4 kmh 29.42 in996.3 mb 0.03 in0.8 mm 0.20 in5.1 mm 0.03 in0.8 mm
06:00 AM 35.8°F2.1°C 33.6°F0.9°C 92% 7.0 mph NW11.3 kmh NW 17.0 mph27.4 kmh 29.42 in996.3 mb 0.02 in0.5 mm 0.00 in0.0 mm 0.03 in0.8 mm
06:03 AM 35.4°F1.9°C 33.4°F0.8°C 92% 7.0 mph NW11.3 kmh NW 17.0 mph27.4 kmh 29.42 in996.3 mb 0.02 in0.5 mm 0.00 in0.0 mm 0.03 in0.8 mm
06:06 AM 35.2°F1.8°C 33.3°F0.7°C 92% 7.0 mph NW11.3 kmh NW 17.0 mph27.4 kmh 29.43 in996.6 mb 0.02 in0.5 mm 0.00 in0.0 mm 0.03 in0.8 mm
06:09 AM 35.2°F1.8°C 33.1°F0.6°C 92% 6.0 mph NW9.7 kmh NW 15.0 mph24.1 kmh 29.43 in996.6 mb 0.02 in0.5 mm 0.00 in0.0 mm 0.03 in0.8 mm
06:12 AM 35.2°F1.8°C 33.1°F0.6°C 92% 6.0 mph NW9.7 kmh NW 13.0 mph20.9 kmh 29.43 in996.6 mb 0.02 in0.5 mm 0.00 in0.0 mm 0.03 in0.8 mm
06:15 AM 35.1°F1.7°C 33.1°F0.6°C 92% 5.0 mph NW8.0 kmh NW 12.0 mph19.3 kmh 29.43 in996.6 mb 0.02 in0.5 mm 0.00 in0.0 mm 0.03 in0.8 mm
06:18 AM 35.1°F1.7°C 33.3°F0.7°C 93% 5.0 mph NW8.0 kmh NW 12.0 mph19.3 kmh 29.43 in996.6 mb 0.02 in0.5 mm 0.00 in0.0 mm 0.03 in0.8 mm
06:21 AM 34.9°F1.6°C 33.1°F0.6°C 93% 5.0 mph NW8.0 kmh NW 12.0 mph19.3 kmh 29.43 in996.6 mb 0.02 in0.5 mm 0.00 in0.0 mm 0.03 in0.8 mm
06:24 AM 34.9°F1.6°C 32.9°F0.5°C 93% 6.0 mph NW9.7 kmh NW 16.0 mph25.7 kmh 29.43 in996.6 mb 0.02 in0.5 mm 0.00 in0.0 mm 0.03 in0.8 mm
06:27 AM 34.9°F1.6°C 32.9°F0.5°C 93% 7.0 mph NW11.3 kmh NW 16.0 mph25.7 kmh 29.43 in996.6 mb 0.02 in0.5 mm 0.00 in0.0 mm 0.03 in0.8 mm
06:30 AM 34.7°F1.5°C 32.9°F0.5°C 93% 8.0 mph NW12.9 kmh NW 16.0 mph25.7 kmh 29.44 in997.0 mb 0.02 in0.5 mm 0.00 in0.0 mm 0.03 in0.8 mm
06:33 AM 34.5°F1.4°C 32.7°F0.4°C 93% 9.0 mph NW14.5 kmh NW 16.0 mph25.7 kmh 29.44 in997.0 mb 0.01 in0.3 mm 0.00 in0.0 mm 0.03 in0.8 mm
06:36 AM 34.5°F1.4°C 32.7°F0.4°C 93% 8.0 mph NW12.9 kmh NW 15.0 mph24.1 kmh 29.44 in997.0 mb 0.01 in0.3 mm 0.00 in0.0 mm 0.03 in0.8 mm
06:39 AM 34.3°F1.3°C 32.5°F0.3°C 93% 8.0 mph NW12.9 kmh NW 14.0 mph22.5 kmh 29.45 in997.3 mb 0.01 in0.3 mm 0.00 in0.0 mm 0.03 in0.8 mm
06:42 AM 34.3°F1.3°C 32.5°F0.3°C 93% 7.0 mph NW11.3 kmh NW 14.0 mph22.5 kmh 29.45 in997.3 mb 0.01 in0.3 mm 0.00 in0.0 mm 0.03 in0.8 mm
06:45 AM 34.3°F1.3°C 32.5°F0.3°C 93% 7.0 mph NW11.3 kmh NW 15.0 mph24.1 kmh 29.45 in997.3 mb 0.01 in0.3 mm 0.00 in0.0 mm 0.03 in0.8 mm
06:48 AM 34.3°F1.3°C 32.5°F0.3°C 93% 8.0 mph NW12.9 kmh NW 16.0 mph25.7 kmh 29.45 in997.3 mb 0.01 in0.3 mm 0.00 in0.0 mm 0.03 in0.8 mm
06:51 AM 34.3°F1.3°C 32.5°F0.3°C 93% 8.0 mph NNW12.9 kmh NNW 16.0 mph25.7 kmh 29.45 in997.3 mb 0.01 in0.3 mm 0.00 in0.0 mm 0.03 in0.8 mm
06:54 AM 34.5°F1.4°C 32.7°F0.4°C 93% 7.0 mph NW11.3 kmh NW 16.0 mph25.7 kmh 29.46 in997.6 mb 0.01 in0.3 mm 0.00 in0.0 mm 0.03 in0.8 mm
06:57 AM 34.5°F1.4°C 32.7°F0.4°C 93% 6.0 mph NW9.7 kmh NW 16.0 mph25.7 kmh 29.46 in997.6 mb 0.00 in0.0 mm 0.00 in0.0 mm 0.03 in0.8 mm
07:00 AM 34.5°F1.4°C 32.7°F0.4°C 93% 6.0 mph NW9.7 kmh NW 13.0 mph20.9 kmh 29.46 in997.6 mb 0.00 in0.0 mm 0.00 in0.0 mm 0.03 in0.8 mm
07:03 AM 34.5°F1.4°C 32.7°F0.4°C 93% 5.0 mph NW8.0 kmh NW 11.0 mph17.7 kmh 29.46 in997.6 mb 0.00 in0.0 mm 0.00 in0.0 mm 0.03 in0.8 mm
07:06 AM 34.7°F1.5°C 32.9°F0.5°C 93% 5.0 mph NW8.0 kmh NW 11.0 mph17.7 kmh 29.46 in997.6 mb 0.00 in0.0 mm 0.00 in0.0 mm 0.03 in0.8 mm
07:09 AM 34.7°F1.5°C 32.9°F0.5°C 93% 5.0 mph NW8.0 kmh NW 10.0 mph16.1 kmh 29.46 in997.6 mb 0.00 in0.0 mm 0.00 in0.0 mm 0.03 in0.8 mm
07:12 AM 34.5°F1.4°C 32.7°F0.4°C 93% 4.0 mph NW6.4 kmh NW 10.0 mph16.1 kmh 29.46 in997.6 mb 0.00 in0.0 mm 0.00 in0.0 mm 0.03 in0.8 mm
07:15 AM 34.5°F1.4°C 32.7°F0.4°C 93% 5.0 mph NW8.0 kmh NW 11.0 mph17.7 kmh 29.46 in997.6 mb 0.00 in0.0 mm 0.00 in0.0 mm 0.03 in0.8 mm
07:18 AM 34.5°F1.4°C 32.7°F0.4°C 93% 5.0 mph NW8.0 kmh NW 11.0 mph17.7 kmh 29.47 in998.0 mb 0.00 in0.0 mm 0.00 in0.0 mm 0.03 in0.8 mm
07:21 AM 34.5°F1.4°C 32.7°F0.4°C 93% 5.0 mph NW8.0 kmh NW 15.0 mph24.1 kmh 29.47 in998.0 mb 0.00 in0.0 mm 0.00 in0.0 mm 0.03 in0.8 mm
07:24 AM 34.5°F1.4°C 32.7°F0.4°C 93% 5.0 mph NW8.0 kmh NW 15.0 mph24.1 kmh 29.47 in998.0 mb 0.00 in0.0 mm 0.00 in0.0 mm 0.03 in0.8 mm
07:27 AM 34.5°F1.4°C 32.7°F0.4°C 93% 4.0 mph NW6.4 kmh NW 15.0 mph24.1 kmh 29.48 in998.3 mb 0.00 in0.0 mm 0.00 in0.0 mm 0.03 in0.8 mm
07:30 AM 34.5°F1.4°C 32.7°F0.4°C 93% 4.0 mph NW6.4 kmh NW 9.0 mph14.5 kmh 29.48 in998.3 mb 0.00 in0.0 mm 0.00 in0.0 mm 0.03 in0.8 mm
07:33 AM 34.5°F1.4°C 32.7°F0.4°C 93% 4.0 mph NW6.4 kmh NW 9.0 mph14.5 kmh 29.48 in998.3 mb 0.00 in0.0 mm 0.00 in0.0 mm 0.03 in0.8 mm
07:36 AM 34.3°F1.3°C 32.4°F0.2°C 92% 3.0 mph NW4.8 kmh NW 7.0 mph11.3 kmh 29.48 in998.3 mb 0.00 in0.0 mm 0.00 in0.0 mm 0.03 in0.8 mm
07:39 AM 34.3°F1.3°C 32.4°F0.2°C 92% 3.0 mph NW4.8 kmh NW 7.0 mph11.3 kmh 29.49 in998.6 mb 0.00 in0.0 mm 0.00 in0.0 mm 0.03 in0.8 mm
07:42 AM 34.3°F1.3°C 32.2°F0.1°C 92% 3.0 mph NW4.8 kmh NW 7.0 mph11.3 kmh 29.49 in998.6 mb 0.00 in0.0 mm 0.00 in0.0 mm 0.03 in0.8 mm
07:45 AM 34.2°F1.2°C 32.2°F0.1°C 92% 2.0 mph NW3.2 kmh NW 5.0 mph8.0 kmh 29.49 in998.6 mb 0.00 in0.0 mm 0.00 in0.0 mm 0.03 in0.8 mm
07:48 AM 34.2°F1.2°C 32.2°F0.1°C 92% 2.0 mph NW3.2 kmh NW 5.0 mph8.0 kmh 29.49 in998.6 mb 0.00 in0.0 mm 0.00 in0.0 mm 0.03 in0.8 mm
07:51 AM 34.2°F1.2°C 32.2°F0.1°C 92% 2.0 mph NW3.2 kmh NW 5.0 mph8.0 kmh 29.50 in999.0 mb 0.00 in0.0 mm 0.00 in0.0 mm 0.03 in0.8 mm
07:54 AM 34.2°F1.2°C 32.4°F0.2°C 93% 2.0 mph NW3.2 kmh NW 9.0 mph14.5 kmh 29.50 in999.0 mb 0.00 in0.0 mm 0.00 in0.0 mm 0.03 in0.8 mm
07:57 AM 34.3°F1.3°C 32.5°F0.3°C 93% 4.0 mph NW6.4 kmh NW 18.0 mph29.0 kmh 29.50 in999.0 mb 0.00 in0.0 mm 0.00 in0.0 mm 0.03 in0.8 mm
08:00 AM 34.3°F1.3°C 32.5°F0.3°C 93% 6.0 mph NW9.7 kmh NW 18.0 mph29.0 kmh 29.50 in999.0 mb 0.00 in0.0 mm 0.00 in0.0 mm 0.03 in0.8 mm
08:03 AM 34.5°F1.4°C 32.7°F0.4°C 93% 8.0 mph NW12.9 kmh NW 18.0 mph29.0 kmh 29.50 in999.0 mb 0.00 in0.0 mm 0.00 in0.0 mm 0.03 in0.8 mm
08:06 AM 34.5°F1.4°C 32.7°F0.4°C 93% 9.0 mph NNW14.5 kmh NNW 21.0 mph33.8 kmh 29.51 in999.3 mb 0.00 in0.0 mm 0.00 in0.0 mm 0.03 in0.8 mm
08:09 AM 34.5°F1.4°C 32.4°F0.2°C 92% 9.0 mph NW14.5 kmh NW 21.0 mph33.8 kmh 29.51 in999.3 mb 0.00 in0.0 mm 0.00 in0.0 mm 0.03 in0.8 mm
08:12 AM 34.5°F1.4°C 32.7°F0.4°C 93% 10.0 mph NW16.1 kmh NW 21.0 mph33.8 kmh 29.51 in999.3 mb 0.00 in0.0 mm 0.00 in0.0 mm 0.03 in0.8 mm
08:15 AM 34.5°F1.4°C 32.7°F0.4°C 93% 10.0 mph NW16.1 kmh NW 21.0 mph33.8 kmh 29.52 in999.7 mb 0.00 in0.0 mm 0.00 in0.0 mm 0.03 in0.8 mm
08:18 AM 34.3°F1.3°C 32.5°F0.3°C 93% 9.0 mph NW14.5 kmh NW 21.0 mph33.8 kmh 29.52 in999.7 mb 0.00 in0.0 mm 0.00 in0.0 mm 0.03 in0.8 mm
08:21 AM 34.3°F1.3°C 32.2°F0.1°C 92% 8.0 mph NNW12.9 kmh NNW 15.0 mph24.1 kmh 29.52 in999.7 mb 0.00 in0.0 mm 0.00 in0.0 mm 0.03 in0.8 mm
08:24 AM 34.2°F1.2°C 32.4°F0.2°C 93% 8.0 mph NNW12.9 kmh NNW 15.0 mph24.1 kmh 29.52 in999.7 mb 0.00 in0.0 mm 0.00 in0.0 mm 0.03 in0.8 mm
08:27 AM 34.2°F1.2°C 32.2°F0.1°C 92% 7.0 mph NNW11.3 kmh NNW 15.0 mph24.1 kmh 29.52 in999.7 mb 0.00 in0.0 mm 0.00 in0.0 mm 0.03 in0.8 mm
08:30 AM 34.2°F1.2°C 32.0°F0.0°C 92% 5.0 mph NW8.0 kmh NW 15.0 mph24.1 kmh 29.52 in999.7 mb 0.00 in0.0 mm 0.00 in0.0 mm 0.03 in0.8 mm
08:33 AM 34.0°F1.1°C 32.0°F0.0°C 92% 4.0 mph NW6.4 kmh NW 14.0 mph22.5 kmh 29.52 in999.7 mb 0.00 in0.0 mm 0.00 in0.0 mm 0.03 in0.8 mm
08:36 AM 34.0°F1.1°C 32.2°F0.1°C 93% 3.0 mph NW4.8 kmh NW 8.0 mph12.9 kmh 29.52 in999.7 mb 0.00 in0.0 mm 0.00 in0.0 mm 0.03 in0.8 mm
08:39 AM 34.0°F1.1°C 32.2°F0.1°C 93% 3.0 mph NW4.8 kmh NW 8.0 mph12.9 kmh 29.52 in999.7 mb 0.00 in0.0 mm 0.00 in0.0 mm 0.03 in0.8 mm
08:42 AM 34.0°F1.1°C 32.2°F0.1°C 93% 3.0 mph NW4.8 kmh NW 6.0 mph9.7 kmh 29.53 in1000.0 mb 0.00 in0.0 mm 0.00 in0.0 mm 0.03 in0.8 mm
08:45 AM 34.2°F1.2°C 32.4°F0.2°C 93% 3.0 mph NW4.8 kmh NW 7.0 mph11.3 kmh 29.53 in1000.0 mb 0.00 in0.0 mm 0.00 in0.0 mm 0.03 in0.8 mm
08:48 AM 34.2°F1.2°C 32.4°F0.2°C 93% 3.0 mph NW4.8 kmh NW 8.0 mph12.9 kmh 29.53 in1000.0 mb 0.00 in0.0 mm 0.00 in0.0 mm 0.03 in0.8 mm
08:51 AM 34.2°F1.2°C 32.4°F0.2°C 93% 3.0 mph NW4.8 kmh NW 8.0 mph12.9 kmh 29.53 in1000.0 mb 0.00 in0.0 mm 0.00 in0.0 mm 0.03 in0.8 mm
08:54 AM 34.2°F1.2°C 32.4°F0.2°C 93% 4.0 mph NW6.4 kmh NW 8.0 mph12.9 kmh 29.54 in1000.3 mb 0.00 in0.0 mm 0.00 in0.0 mm 0.03 in0.8 mm
08:57 AM 34.2°F1.2°C 32.4°F0.2°C 93% 4.0 mph NW6.4 kmh NW 8.0 mph12.9 kmh 29.54 in1000.3 mb 0.00 in0.0 mm 0.00 in0.0 mm 0.03 in0.8 mm
09:00 AM 34.3°F1.3°C 32.5°F0.3°C 93% 4.0 mph NW6.4 kmh NW 9.0 mph14.5 kmh 29.54 in1000.3 mb 0.00 in0.0 mm 0.00 in0.0 mm 0.03 in0.8 mm
09:03 AM 34.3°F1.3°C 32.5°F0.3°C 93% 4.0 mph NW6.4 kmh NW 9.0 mph14.5 kmh 29.54 in1000.3 mb 0.00 in0.0 mm 0.00 in0.0 mm 0.03 in0.8 mm
09:06 AM 34.5°F1.4°C 32.7°F0.4°C 93% 4.0 mph NW6.4 kmh NW 9.0 mph14.5 kmh 29.55 in1000.7 mb 0.00 in0.0 mm 0.00 in0.0 mm 0.03 in0.8 mm
09:09 AM 34.5°F1.4°C 32.7°F0.4°C 93% 5.0 mph NW8.0 kmh NW 9.0 mph14.5 kmh 29.55 in1000.7 mb 0.00 in0.0 mm 0.00 in0.0 mm 0.03 in0.8 mm
09:12 AM 34.5°F1.4°C 33.1°F0.6°C 94% 4.0 mph NW6.4 kmh NW 9.0 mph14.5 kmh 29.55 in1000.7 mb 0.00 in0.0 mm 0.00 in0.0 mm 0.03 in0.8 mm
09:15 AM 34.9°F1.6°C 33.3°F0.7°C 94% 4.0 mph NW6.4 kmh NW 8.0 mph12.9 kmh 29.55 in1000.7 mb 0.00 in0.0 mm 0.00 in0.0 mm 0.03 in0.8 mm
09:18 AM 35.1°F1.7°C 33.4°F0.8°C 94% 3.0 mph NW4.8 kmh NW 9.0 mph14.5 kmh 29.55 in1000.7 mb 0.00 in0.0 mm 0.00 in0.0 mm 0.03 in0.8 mm
09:21 AM 35.1°F1.7°C 33.6°F0.9°C 94% 3.0 mph NW4.8 kmh NW 9.0 mph14.5 kmh 29.55 in1000.7 mb 0.00 in0.0 mm 0.00 in0.0 mm 0.03 in0.8 mm
09:24 AM 35.2°F1.8°C 33.6°F0.9°C 94% 3.0 mph NW4.8 kmh NW 9.0 mph14.5 kmh 29.56 in1001.0 mb 0.00 in0.0 mm 0.00 in0.0 mm 0.03 in0.8 mm
09:27 AM 35.4°F1.9°C 33.8°F1.0°C 94% 3.0 mph NW4.8 kmh NW 9.0 mph14.5 kmh 29.56 in1001.0 mb 0.00 in0.0 mm 0.00 in0.0 mm 0.03 in0.8 mm
09:30 AM 35.4°F1.9°C 34.0°F1.1°C 94% 3.0 mph WNW4.8 kmh WNW 8.0 mph12.9 kmh 29.56 in1001.0 mb 0.00 in0.0 mm 0.00 in0.0 mm 0.03 in0.8 mm
09:33 AM 35.4°F1.9°C 33.6°F0.9°C 93% 3.0 mph WNW4.8 kmh WNW 8.0 mph12.9 kmh 29.56 in1001.0 mb 0.00 in0.0 mm 0.00 in0.0 mm 0.03 in0.8 mm
09:36 AM 35.8°F2.1°C 33.8°F1.0°C 93% 3.0 mph WNW4.8 kmh WNW 9.0 mph14.5 kmh 29.56 in1001.0 mb 0.00 in0.0 mm 0.00 in0.0 mm 0.03 in0.8 mm
09:39 AM 35.8°F2.1°C 34.0°F1.1°C 93% 3.0 mph NW4.8 kmh NW 9.0 mph14.5 kmh 29.56 in1001.0 mb 0.00 in0.0 mm 0.00 in0.0 mm 0.03 in0.8 mm
09:42 AM 36.0°F2.2°C 34.2°F1.2°C 93% 4.0 mph NW6.4 kmh NW 9.0 mph14.5 kmh 29.57 in1001.4 mb 0.00 in0.0 mm 0.00 in0.0 mm 0.03 in0.8 mm
09:45 AM 36.0°F2.2°C 34.2°F1.2°C 93% 4.0 mph NW6.4 kmh NW 9.0 mph14.5 kmh 29.57 in1001.4 mb 0.00 in0.0 mm 0.00 in0.0 mm 0.03 in0.8 mm
09:48 AM 36.0°F2.2°C 34.0°F1.1°C 92% 4.0 mph NW6.4 kmh NW 11.0 mph17.7 kmh 29.57 in1001.4 mb 0.00 in0.0 mm 0.00 in0.0 mm 0.03 in0.8 mm
09:51 AM 36.1°F2.3°C 34.0°F1.1°C 92% 4.0 mph NW6.4 kmh NW 11.0 mph17.7 kmh 29.57 in1001.4 mb 0.00 in0.0 mm 0.00 in0.0 mm 0.03 in0.8 mm
09:54 AM 36.1°F2.3°C 34.0°F1.1°C 92% 4.0 mph NW6.4 kmh NW 11.0 mph17.7 kmh 29.57 in1001.4 mb 0.00 in0.0 mm 0.00 in0.0 mm 0.03 in0.8 mm
09:57 AM 36.1°F2.3°C 34.0°F1.1°C 92% 4.0 mph NW6.4 kmh NW 10.0 mph16.1 kmh 29.57 in1001.4 mb 0.00 in0.0 mm 0.00 in0.0 mm 0.03 in0.8 mm
10:00 AM 36.1°F2.3°C 33.8°F1.0°C 91% 5.0 mph NW8.0 kmh NW 10.0 mph16.1 kmh 29.57 in1001.4 mb 0.00 in0.0 mm 0.00 in0.0 mm 0.03 in0.8 mm
10:03 AM 36.3°F2.4°C 34.0°F1.1°C 91% 4.0 mph NW6.4 kmh NW 10.0 mph16.1 kmh 29.57 in1001.4 mb 0.00 in0.0 mm 0.00 in0.0 mm 0.03 in0.8 mm
10:06 AM 36.3°F2.4°C 34.0°F1.1°C 91% 4.0 mph NW6.4 kmh NW 10.0 mph16.1 kmh 29.57 in1001.4 mb 0.00 in0.0 mm 0.00 in0.0 mm 0.03 in0.8 mm
10:09 AM 36.5°F2.5°C 34.2°F1.2°C 91% 4.0 mph NW6.4 kmh NW 10.0 mph16.1 kmh 29.57 in1001.4 mb 0.00 in0.0 mm 0.00 in0.0 mm 0.03 in0.8 mm
10:12 AM 36.7°F2.6°C 34.3°F1.3°C 91% 3.0 mph NW4.8 kmh NW 8.0 mph12.9 kmh 29.57 in1001.4 mb 0.00 in0.0 mm 0.00 in0.0 mm 0.03 in0.8 mm
10:15 AM 36.9°F2.7°C 34.3°F1.3°C 91% 3.0 mph NW4.8 kmh NW 8.0 mph12.9 kmh 29.58 in1001.7 mb 0.00 in0.0 mm 0.00 in0.0 mm 0.03 in0.8 mm
10:18 AM 37.0°F2.8°C 34.3°F1.3°C 90% 3.0 mph NW4.8 kmh NW 8.0 mph12.9 kmh 29.58 in1001.7 mb 0.00 in0.0 mm 0.00 in0.0 mm 0.03 in0.8 mm
10:21 AM 37.2°F2.9°C 34.5°F1.4°C 90% 4.0 mph NW6.4 kmh NW 10.0 mph16.1 kmh 29.59 in1002.0 mb 0.00 in0.0 mm 0.00 in0.0 mm 0.03 in0.8 mm
10:24 AM 37.2°F2.9°C 34.3°F1.3°C 89% 4.0 mph NW6.4 kmh NW 10.0 mph16.1 kmh 29.58 in1001.7 mb 0.00 in0.0 mm 0.00 in0.0 mm 0.03 in0.8 mm
10:27 AM 37.2°F2.9°C 34.3°F1.3°C 89% 4.0 mph WNW6.4 kmh WNW 10.0 mph16.1 kmh 29.58 in1001.7 mb 0.00 in0.0 mm 0.00 in0.0 mm 0.03 in0.8 mm
10:30 AM 37.4°F3.0°C 34.2°F1.2°C 88% 4.0 mph WNW6.4 kmh WNW 10.0 mph16.1 kmh 29.58 in1001.7 mb 0.00 in0.0 mm 0.00 in0.0 mm 0.03 in0.8 mm
10:33 AM 37.6°F3.1°C 34.3°F1.3°C 88% 4.0 mph WNW6.4 kmh WNW 9.0 mph14.5 kmh 29.58 in1001.7 mb 0.00 in0.0 mm 0.00 in0.0 mm 0.03 in0.8 mm
10:36 AM 37.8°F3.2°C 34.5°F1.4°C 88% 3.0 mph NW4.8 kmh NW 8.0 mph12.9 kmh 29.59 in1002.0 mb 0.00 in0.0 mm 0.00 in0.0 mm 0.03 in0.8 mm
10:39 AM 37.8°F3.2°C 34.3°F1.3°C 87% 3.0 mph NW4.8 kmh NW 8.0 mph12.9 kmh 29.59 in1002.0 mb 0.00 in0.0 mm 0.00 in0.0 mm 0.03 in0.8 mm
10:42 AM 37.9°F3.3°C 34.3°F1.3°C 87% 4.0 mph NW6.4 kmh NW 10.0 mph16.1 kmh 29.59 in1002.0 mb 0.00 in0.0 mm 0.00 in0.0 mm 0.03 in0.8 mm
10:45 AM 37.9°F3.3°C 34.5°F1.4°C 87% 4.0 mph WNW6.4 kmh WNW 11.0 mph17.7 kmh 29.59 in1002.0 mb 0.00 in0.0 mm 0.00 in0.0 mm 0.03 in0.8 mm
10:48 AM 38.1°F3.4°C 34.3°F1.3°C 86% 4.0 mph WNW6.4 kmh WNW 11.0 mph17.7 kmh 29.59 in1002.0 mb 0.00 in0.0 mm 0.00 in0.0 mm 0.03 in0.8 mm
10:51 AM 38.1°F3.4°C 34.3°F1.3°C 86% 4.0 mph WNW6.4 kmh WNW 11.0 mph17.7 kmh 29.59 in1002.0 mb 0.00 in0.0 mm 0.00 in0.0 mm 0.03 in0.8 mm
10:54 AM 38.3°F3.5°C 34.5°F1.4°C 86% 3.0 mph WNW4.8 kmh WNW 8.0 mph12.9 kmh 29.59 in1002.0 mb 0.00 in0.0 mm 0.00 in0.0 mm 0.03 in0.8 mm
10:57 AM 38.5°F3.6°C 34.5°F1.4°C 86% 3.0 mph WNW4.8 kmh WNW 9.0 mph14.5 kmh 29.60 in1002.4 mb 0.00 in0.0 mm 0.00 in0.0 mm 0.03 in0.8 mm
11:00 AM 38.5°F3.6°C 34.3°F1.3°C 85% 3.0 mph WNW4.8 kmh WNW 9.0 mph14.5 kmh 29.60 in1002.4 mb 0.00 in0.0 mm 0.00 in0.0 mm 0.03 in0.8 mm
11:03 AM 38.7°F3.7°C 34.5°F1.4°C 85% 3.0 mph NW4.8 kmh NW 9.0 mph14.5 kmh 29.60 in1002.4 mb 0.00 in0.0 mm 0.00 in0.0 mm 0.03 in0.8 mm
11:06 AM 38.8°F3.8°C 35.1°F1.7°C 86% 3.0 mph NW4.8 kmh NW 9.0 mph14.5 kmh 29.60 in1002.4 mb 0.00 in0.0 mm 0.00 in0.0 mm 0.03 in0.8 mm
11:09 AM 39.0°F3.9°C 35.1°F1.7°C 85% 4.0 mph NW6.4 kmh NW 12.0 mph19.3 kmh 29.61 in1002.7 mb 0.00 in0.0 mm 0.00 in0.0 mm 0.03 in0.8 mm
11:12 AM 39.2°F4.0°C 34.7°F1.5°C 84% 4.0 mph NW6.4 kmh NW 12.0 mph19.3 kmh 29.61 in1002.7 mb 0.00 in0.0 mm 0.00 in0.0 mm 0.03 in0.8 mm
11:15 AM 39.2°F4.0°C 34.7°F1.5°C 84% 4.0 mph WNW6.4 kmh WNW 12.0 mph19.3 kmh 29.61 in1002.7 mb 0.00 in0.0 mm 0.00 in0.0 mm 0.03 in0.8 mm
11:18 AM 39.4°F4.1°C 34.9°F1.6°C 84% 4.0 mph NW6.4 kmh NW 10.0 mph16.1 kmh 29.61 in1002.7 mb 0.00 in0.0 mm 0.00 in0.0 mm 0.03 in0.8 mm
11:21 AM 39.4°F4.1°C 34.9°F1.6°C 84% 4.0 mph WNW6.4 kmh WNW 12.0 mph19.3 kmh 29.61 in1002.7 mb 0.00 in0.0 mm 0.00 in0.0 mm 0.03 in0.8 mm
11:24 AM 39.6°F4.2°C 35.2°F1.8°C 84% 4.0 mph WNW6.4 kmh WNW 12.0 mph19.3 kmh 29.61 in1002.7 mb 0.00 in0.0 mm 0.00 in0.0 mm 0.03 in0.8 mm
11:27 AM 39.7°F4.3°C 35.2°F1.8°C 84% 5.0 mph WNW8.0 kmh WNW 12.0 mph19.3 kmh 29.61 in1002.7 mb 0.00 in0.0 mm 0.00 in0.0 mm 0.03 in0.8 mm
11:30 AM 39.9°F4.4°C 35.4°F1.9°C 84% 5.0 mph WNW8.0 kmh WNW 12.0 mph19.3 kmh 29.61 in1002.7 mb 0.00 in0.0 mm 0.00 in0.0 mm 0.03 in0.8 mm
11:33 AM 39.9°F4.4°C 35.2°F1.8°C 83% 5.0 mph WNW8.0 kmh WNW 11.0 mph17.7 kmh 29.61 in1002.7 mb 0.00 in0.0 mm 0.00 in0.0 mm 0.03 in0.8 mm
11:36 AM 40.3°F4.6°C 35.4°F1.9°C 83% 5.0 mph WNW8.0 kmh WNW 13.0 mph20.9 kmh 29.61 in1002.7 mb 0.00 in0.0 mm 0.00 in0.0 mm 0.03 in0.8 mm
11:39 AM 40.3°F4.6°C 35.1°F1.7°C 82% 5.0 mph WNW8.0 kmh WNW 13.0 mph20.9 kmh 29.61 in1002.7 mb 0.00 in0.0 mm 0.00 in0.0 mm 0.03 in0.8 mm
11:42 AM 40.3°F4.6°C 34.9°F1.6°C 81% 5.0 mph WNW8.0 kmh WNW 13.0 mph20.9 kmh 29.62 in1003.0 mb 0.00 in0.0 mm 0.00 in0.0 mm 0.03 in0.8 mm
11:45 AM 40.5°F4.7°C 35.1°F1.7°C 81% 5.0 mph WNW8.0 kmh WNW 12.0 mph19.3 kmh 29.62 in1003.0 mb 0.00 in0.0 mm 0.00 in0.0 mm 0.03 in0.8 mm
11:48 AM 40.8°F4.9°C 35.8°F2.1°C 82% 5.0 mph WNW8.0 kmh WNW 12.0 mph19.3 kmh 29.62 in1003.0 mb 0.00 in0.0 mm 0.00 in0.0 mm 0.03 in0.8 mm
11:51 AM 41.0°F5.0°C 36.0°F2.2°C 82% 5.0 mph W8.0 kmh W 12.0 mph19.3 kmh 29.62 in1003.0 mb 0.00 in0.0 mm 0.00 in0.0 mm 0.03 in0.8 mm
11:54 AM 41.2°F5.1°C 35.8°F2.1°C 81% 5.0 mph W8.0 kmh W 11.0 mph17.7 kmh 29.62 in1003.0 mb 0.00 in0.0 mm 0.00 in0.0 mm 0.03 in0.8 mm
11:57 AM 41.4°F5.2°C 35.6°F2.0°C 80% 5.0 mph W8.0 kmh W 10.0 mph16.1 kmh 29.61 in1002.7 mb 0.00 in0.0 mm 0.00 in0.0 mm 0.03 in0.8 mm
12:00 PM 41.4°F5.2°C 35.8°F2.1°C 80% 5.0 mph W8.0 kmh W 10.0 mph16.1 kmh 29.62 in1003.0 mb 0.00 in0.0 mm 0.00 in0.0 mm 0.03 in0.8 mm
12:03 PM 41.5°F5.3°C 35.8°F2.1°C 80% 5.0 mph W8.0 kmh W 11.0 mph17.7 kmh 29.62 in1003.0 mb 0.00 in0.0 mm 0.00 in0.0 mm 0.03 in0.8 mm
12:06 PM 41.5°F5.3°C 35.2°F1.8°C 78% 5.0 mph W8.0 kmh W 12.0 mph19.3 kmh 29.62 in1003.0 mb 0.00 in0.0 mm 0.00 in0.0 mm 0.03 in0.8 mm
12:09 PM 41.5°F5.3°C 35.6°F2.0°C 79% 6.0 mph W9.7 kmh W 12.0 mph19.3 kmh 29.62 in1003.0 mb 0.00 in0.0 mm 0.00 in0.0 mm 0.03 in0.8 mm
12:12 PM 41.7°F5.4°C 35.8°F2.1°C 79% 5.0 mph W8.0 kmh W 12.0 mph19.3 kmh 29.62 in1003.0 mb 0.00 in0.0 mm 0.00 in0.0 mm 0.03 in0.8 mm
12:15 PM 42.1°F5.6°C 35.6°F2.0°C 78% 5.0 mph W8.0 kmh W 12.0 mph19.3 kmh 29.62 in1003.0 mb 0.00 in0.0 mm 0.00 in0.0 mm 0.03 in0.8 mm
12:18 PM 42.1°F5.6°C 35.8°F2.1°C 78% 4.0 mph W6.4 kmh W 9.0 mph14.5 kmh 29.62 in1003.0 mb 0.00 in0.0 mm 0.00 in0.0 mm 0.03 in0.8 mm
12:21 PM 42.3°F5.7°C 36.3°F2.4°C 79% 4.0 mph W6.4 kmh W 9.0 mph14.5 kmh 29.62 in1003.0 mb 0.00 in0.0 mm 0.00 in0.0 mm 0.03 in0.8 mm
12:24 PM 42.4°F5.8°C 36.1°F2.3°C 78% 4.0 mph W6.4 kmh W 10.0 mph16.1 kmh 29.62 in1003.0 mb 0.00 in0.0 mm 0.00 in0.0 mm 0.03 in0.8 mm
12:27 PM 42.6°F5.9°C 36.7°F2.6°C 79% 5.0 mph W8.0 kmh W 10.0 mph16.1 kmh 29.63 in1003.4 mb 0.00 in0.0 mm 0.00 in0.0 mm 0.03 in0.8 mm
12:30 PM 42.8°F6.0°C 36.5°F2.5°C 78% 5.0 mph W8.0 kmh W 12.0 mph19.3 kmh 29.63 in1003.4 mb 0.00 in0.0 mm 0.00 in0.0 mm 0.03 in0.8 mm
12:33 PM 42.8°F6.0°C 35.8°F2.1°C 76% 5.0 mph W8.0 kmh W 12.0 mph19.3 kmh 29.62 in1003.0 mb 0.00 in0.0 mm 0.00 in0.0 mm 0.03 in0.8 mm
12:36 PM 42.6°F5.9°C 35.2°F1.8°C 75% 5.0 mph W8.0 kmh W 12.0 mph19.3 kmh 29.62 in1003.0 mb 0.00 in0.0 mm 0.00 in0.0 mm 0.03 in0.8 mm
12:39 PM 42.6°F5.9°C 35.1°F1.7°C 74% 5.0 mph WNW8.0 kmh WNW 12.0 mph19.3 kmh 29.62 in1003.0 mb 0.00 in0.0 mm 0.00 in0.0 mm 0.03 in0.8 mm
12:42 PM 42.6°F5.9°C 35.1°F1.7°C 74% 5.0 mph WNW8.0 kmh WNW 11.0 mph17.7 kmh 29.62 in1003.0 mb 0.00 in0.0 mm 0.00 in0.0 mm 0.03 in0.8 mm
12:45 PM 42.6°F5.9°C 35.1°F1.7°C 74% 5.0 mph WNW8.0 kmh WNW 11.0 mph17.7 kmh 29.63 in1003.4 mb 0.00 in0.0 mm 0.00 in0.0 mm 0.03 in0.8 mm
12:48 PM 42.6°F5.9°C 35.1°F1.7°C 74% 5.0 mph W8.0 kmh W 12.0 mph19.3 kmh 29.63 in1003.4 mb 0.00 in0.0 mm 0.00 in0.0 mm 0.03 in0.8 mm
12:51 PM 42.8°F6.0°C 35.1°F1.7°C 74% 6.0 mph W9.7 kmh W 12.0 mph19.3 kmh 29.62 in1003.0 mb 0.00 in0.0 mm 0.00 in0.0 mm 0.03 in0.8 mm
12:54 PM 42.8°F6.0°C 34.7°F1.5°C 73% 6.0 mph W9.7 kmh W 12.0 mph19.3 kmh 29.63 in1003.4 mb 0.00 in0.0 mm 0.00 in0.0 mm 0.03 in0.8 mm
12:57 PM 43.0°F6.1°C 35.2°F1.8°C 74% 5.0 mph W8.0 kmh W 12.0 mph19.3 kmh 29.62 in1003.0 mb 0.00 in0.0 mm 0.00 in0.0 mm 0.03 in0.8 mm
01:00 PM 43.2°F6.2°C 35.1°F1.7°C 73% 5.0 mph W8.0 kmh W 10.0 mph16.1 kmh 29.62 in1003.0 mb 0.00 in0.0 mm 0.00 in0.0 mm 0.03 in0.8 mm
01:03 PM 43.2°F6.2°C 35.4°F1.9°C 74% 5.0 mph W8.0 kmh W 16.0 mph25.7 kmh 29.62 in1003.0 mb 0.00 in0.0 mm 0.00 in0.0 mm 0.03 in0.8 mm
01:06 PM 43.3°F6.3°C 35.6°F2.0°C 74% 5.0 mph W8.0 kmh W 16.0 mph25.7 kmh 29.62 in1003.0 mb 0.00 in0.0 mm 0.00 in0.0 mm 0.03 in0.8 mm
01:09 PM 43.3°F6.3°C 34.9°F1.6°C 72% 5.0 mph WNW8.0 kmh WNW 16.0 mph25.7 kmh 29.62 in1003.0 mb 0.00 in0.0 mm 0.00 in0.0 mm 0.03 in0.8 mm
01:12 PM 43.3°F6.3°C 34.9°F1.6°C 72% 4.0 mph WNW6.4 kmh WNW 10.0 mph16.1 kmh 29.62 in1003.0 mb 0.00 in0.0 mm 0.00 in0.0 mm 0.03 in0.8 mm
01:15 PM 43.5°F6.4°C 35.8°F2.1°C 74% 5.0 mph W8.0 kmh W 12.0 mph19.3 kmh 29.62 in1003.0 mb 0.00 in0.0 mm 0.00 in0.0 mm 0.03 in0.8 mm
01:18 PM 43.7°F6.5°C 35.6°F2.0°C 73% 5.0 mph W8.0 kmh W 13.0 mph20.9 kmh 29.62 in1003.0 mb 0.00 in0.0 mm 0.00 in0.0 mm 0.03 in0.8 mm
01:21 PM 43.9°F6.6°C 35.4°F1.9°C 72% 7.0 mph W11.3 kmh W 13.0 mph20.9 kmh 29.62 in1003.0 mb 0.00 in0.0 mm 0.00 in0.0 mm 0.03 in0.8 mm
01:24 PM 44.2°F6.8°C 36.1°F2.3°C 73% 6.0 mph W9.7 kmh W 13.0 mph20.9 kmh 29.62 in1003.0 mb 0.00 in0.0 mm 0.00 in0.0 mm 0.03 in0.8 mm
01:27 PM 44.8°F7.1°C 36.5°F2.5°C 73% 6.0 mph W9.7 kmh W 13.0 mph20.9 kmh 29.62 in1003.0 mb 0.00 in0.0 mm 0.00 in0.0 mm 0.03 in0.8 mm
01:30 PM 45.1°F7.3°C 36.7°F2.6°C 72% 5.0 mph W8.0 kmh W 13.0 mph20.9 kmh 29.62 in1003.0 mb 0.00 in0.0 mm 0.00 in0.0 mm 0.03 in0.8 mm
01:33 PM 45.1°F7.3°C 36.7°F2.6°C 72% 5.0 mph W8.0 kmh W 13.0 mph20.9 kmh 29.62 in1003.0 mb 0.00 in0.0 mm 0.00 in0.0 mm 0.03 in0.8 mm
01:36 PM 45.1°F7.3°C 36.7°F2.6°C 72% 5.0 mph W8.0 kmh W 11.0 mph17.7 kmh 29.62 in1003.0 mb 0.00 in0.0 mm 0.00 in0.0 mm 0.03 in0.8 mm
01:39 PM 45.1°F7.3°C 37.0°F2.8°C 73% 5.0 mph WNW8.0 kmh WNW 14.0 mph22.5 kmh 29.62 in1003.0 mb 0.00 in0.0 mm 0.00 in0.0 mm 0.03 in0.8 mm
01:42 PM 44.8°F7.1°C 36.7°F2.6°C 73% 7.0 mph NW11.3 kmh NW 15.0 mph24.1 kmh 29.62 in1003.0 mb 0.00 in0.0 mm 0.00 in0.0 mm 0.03 in0.8 mm
01:45 PM 44.2°F6.8°C 36.9°F2.7°C 75% 8.0 mph NNW12.9 kmh NNW 15.0 mph24.1 kmh 29.62 in1003.0 mb 0.00 in0.0 mm 0.00 in0.0 mm 0.03 in0.8 mm
01:48 PM 43.9°F6.6°C 36.9°F2.7°C 76% 8.0 mph NNW12.9 kmh NNW 15.0 mph24.1 kmh 29.62 in1003.0 mb 0.00 in0.0 mm 0.00 in0.0 mm 0.03 in0.8 mm
01:51 PM 43.9°F6.6°C 36.7°F2.6°C 76% 7.0 mph NNW11.3 kmh NNW 13.0 mph20.9 kmh 29.63 in1003.4 mb 0.00 in0.0 mm 0.00 in0.0 mm 0.03 in0.8 mm
01:54 PM 43.9°F6.6°C 37.2°F2.9°C 77% 7.0 mph NNW11.3 kmh NNW 13.0 mph20.9 kmh 29.63 in1003.4 mb 0.00 in0.0 mm 0.00 in0.0 mm 0.03 in0.8 mm
01:57 PM 43.9°F6.6°C 36.7°F2.6°C 76% 6.0 mph NNW9.7 kmh NNW 13.0 mph20.9 kmh 29.63 in1003.4 mb 0.00 in0.0 mm 0.00 in0.0 mm 0.03 in0.8 mm
02:00 PM 43.9°F6.6°C 37.2°F2.9°C 77% 5.0 mph NNW8.0 kmh NNW 12.0 mph19.3 kmh 29.63 in1003.4 mb 0.00 in0.0 mm 0.00 in0.0 mm 0.03 in0.8 mm
02:03 PM 44.2°F6.8°C 37.0°F2.8°C 76% 4.0 mph NNW6.4 kmh NNW 11.0 mph17.7 kmh 29.62 in1003.0 mb 0.00 in0.0 mm 0.00 in0.0 mm 0.03 in0.8 mm
02:06 PM 44.2°F6.8°C 36.9°F2.7°C 75% 4.0 mph NNW6.4 kmh NNW 9.0 mph14.5 kmh 29.63 in1003.4 mb 0.00 in0.0 mm 0.00 in0.0 mm 0.03 in0.8 mm
02:09 PM 44.1°F6.7°C 36.3°F2.4°C 74% 4.0 mph NNW6.4 kmh NNW 9.0 mph14.5 kmh 29.63 in1003.4 mb 0.00 in0.0 mm 0.00 in0.0 mm 0.03 in0.8 mm
02:12 PM 44.1°F6.7°C 36.3°F2.4°C 74% 4.0 mph NNW6.4 kmh NNW 9.0 mph14.5 kmh 29.62 in1003.0 mb 0.00 in0.0 mm 0.00 in0.0 mm 0.03 in0.8 mm
02:15 PM 43.9°F6.6°C 36.1°F2.3°C 74% 4.0 mph NNW6.4 kmh NNW 8.0 mph12.9 kmh 29.62 in1003.0 mb 0.00 in0.0 mm 0.00 in0.0 mm 0.03 in0.8 mm
02:18 PM 43.9°F6.6°C 36.0°F2.2°C 74% 4.0 mph NNW6.4 kmh NNW 8.0 mph12.9 kmh 29.62 in1003.0 mb 0.00 in0.0 mm 0.00 in0.0 mm 0.03 in0.8 mm
02:21 PM 43.9°F6.6°C 35.8°F2.1°C 73% 3.0 mph NNW4.8 kmh NNW 8.0 mph12.9 kmh 29.62 in1003.0 mb 0.00 in0.0 mm 0.00 in0.0 mm 0.03 in0.8 mm
02:24 PM 44.1°F6.7°C 36.3°F2.4°C 74% 3.0 mph NW4.8 kmh NW 8.0 mph12.9 kmh 29.62 in1003.0 mb 0.00 in0.0 mm 0.00 in0.0 mm 0.03 in0.8 mm
02:27 PM 44.2°F6.8°C 36.1°F2.3°C 73% 2.0 mph NW3.2 kmh NW 6.0 mph9.7 kmh 29.62 in1003.0 mb 0.00 in0.0 mm 0.00 in0.0 mm 0.03 in0.8 mm
02:30 PM 44.2°F6.8°C 35.8°F2.1°C 72% 2.0 mph NW3.2 kmh NW 6.0 mph9.7 kmh 29.62 in1003.0 mb 0.00 in0.0 mm 0.00 in0.0 mm 0.03 in0.8 mm
02:33 PM 44.1°F6.7°C 35.6°F2.0°C 72% 2.0 mph NW3.2 kmh NW 5.0 mph8.0 kmh 29.62 in1003.0 mb 0.00 in0.0 mm 0.00 in0.0 mm 0.03 in0.8 mm
02:36 PM 43.9°F6.6°C 35.1°F1.7°C 71% 2.0 mph NW3.2 kmh NW 4.0 mph6.4 kmh 29.62 in1003.0 mb 0.00 in0.0 mm 0.00 in0.0 mm 0.03 in0.8 mm
02:39 PM 43.9°F6.6°C 35.1°F1.7°C 71% 2.0 mph W3.2 kmh W 4.0 mph6.4 kmh 29.62 in1003.0 mb 0.00 in0.0 mm 0.00 in0.0 mm 0.03 in0.8 mm
02:42 PM 44.1°F6.7°C 35.2°F1.8°C 71% 2.0 mph WNW3.2 kmh WNW 5.0 mph8.0 kmh 29.63 in1003.4 mb 0.00 in0.0 mm 0.00 in0.0 mm 0.03 in0.8 mm
02:45 PM 44.1°F6.7°C 35.2°F1.8°C 71% 2.0 mph WNW3.2 kmh WNW 5.0 mph8.0 kmh 29.62 in1003.0 mb 0.00 in0.0 mm 0.00 in0.0 mm 0.03 in0.8 mm
02:48 PM 44.2°F6.8°C 35.4°F1.9°C 71% 2.0 mph WNW3.2 kmh WNW 5.0 mph8.0 kmh 29.63 in1003.4 mb 0.00 in0.0 mm 0.00 in0.0 mm 0.03 in0.8 mm
02:51 PM 44.2°F6.8°C 34.7°F1.5°C 69% 2.0 mph WNW3.2 kmh WNW 6.0 mph9.7 kmh 29.63 in1003.4 mb 0.00 in0.0 mm 0.00 in0.0 mm 0.03 in0.8 mm
02:54 PM 44.2°F6.8°C 34.3°F1.3°C 68% 3.0 mph W4.8 kmh W 6.0 mph9.7 kmh 29.63 in1003.4 mb 0.00 in0.0 mm 0.00 in0.0 mm 0.03 in0.8 mm
02:57 PM 44.1°F6.7°C 33.8°F1.0°C 67% 3.0 mph W4.8 kmh W 6.0 mph9.7 kmh 29.63 in1003.4 mb 0.00 in0.0 mm 0.00 in0.0 mm 0.03 in0.8 mm
03:00 PM 43.9°F6.6°C 34.0°F1.1°C 68% 3.0 mph W4.8 kmh W 8.0 mph12.9 kmh 29.63 in1003.4 mb 0.00 in0.0 mm 0.00 in0.0 mm 0.03 in0.8 mm
03:03 PM 43.7°F6.5°C 33.8°F1.0°C 68% 3.0 mph W4.8 kmh W 8.0 mph12.9 kmh 29.63 in1003.4 mb 0.00 in0.0 mm 0.00 in0.0 mm 0.03 in0.8 mm
03:06 PM 43.5°F6.4°C 33.6°F0.9°C 68% 3.0 mph WSW4.8 kmh WSW 8.0 mph12.9 kmh 29.63 in1003.4 mb 0.00 in0.0 mm 0.00 in0.0 mm 0.03 in0.8 mm
03:09 PM 43.3°F6.3°C 33.4°F0.8°C 68% 3.0 mph WSW4.8 kmh WSW 7.0 mph11.3 kmh 29.63 in1003.4 mb 0.00 in0.0 mm 0.00 in0.0 mm 0.03 in0.8 mm
03:12 PM 43.2°F6.2°C 34.2°F1.2°C 70% 4.0 mph WSW6.4 kmh WSW 9.0 mph14.5 kmh 29.63 in1003.4 mb 0.00 in0.0 mm 0.00 in0.0 mm 0.03 in0.8 mm
03:15 PM 43.0°F6.1°C 33.4°F0.8°C 69% 4.0 mph WSW6.4 kmh WSW 9.0 mph14.5 kmh 29.63 in1003.4 mb 0.00 in0.0 mm 0.00 in0.0 mm 0.03 in0.8 mm
03:18 PM 43.0°F6.1°C 33.8°F1.0°C 70% 5.0 mph WSW8.0 kmh WSW 9.0 mph14.5 kmh 29.63 in1003.4 mb 0.00 in0.0 mm 0.00 in0.0 mm 0.03 in0.8 mm
03:21 PM 43.2°F6.2°C 33.8°F1.0°C 69% 4.0 mph WSW6.4 kmh WSW 9.0 mph14.5 kmh 29.63 in1003.4 mb 0.00 in0.0 mm 0.00 in0.0 mm 0.03 in0.8 mm
03:24 PM 43.7°F6.5°C 34.2°F1.2°C 69% 4.0 mph WSW6.4 kmh WSW 9.0 mph14.5 kmh 29.63 in1003.4 mb 0.00 in0.0 mm 0.00 in0.0 mm 0.03 in0.8 mm
03:27 PM 44.4°F6.9°C 34.2°F1.2°C 67% 4.0 mph WSW6.4 kmh WSW 10.0 mph16.1 kmh 29.63 in1003.4 mb 0.00 in0.0 mm 0.00 in0.0 mm 0.03 in0.8 mm
03:30 PM 44.8°F7.1°C 34.0°F1.1°C 66% 4.0 mph WSW6.4 kmh WSW 10.0 mph16.1 kmh 29.63 in1003.4 mb 0.00 in0.0 mm 0.00 in0.0 mm 0.03 in0.8 mm
03:33 PM 45.0°F7.2°C 34.0°F1.1°C 65% 4.0 mph WSW6.4 kmh WSW 10.0 mph16.1 kmh 29.63 in1003.4 mb 0.00 in0.0 mm 0.00 in0.0 mm 0.03 in0.8 mm
03:36 PM 45.1°F7.3°C 34.0°F1.1°C 65% 3.0 mph WSW4.8 kmh WSW 6.0 mph9.7 kmh 29.63 in1003.4 mb 0.00 in0.0 mm 0.00 in0.0 mm 0.03 in0.8 mm
03:39 PM 45.1°F7.3°C 34.0°F1.1°C 65% 3.0 mph SW4.8 kmh SW 6.0 mph9.7 kmh 29.63 in1003.4 mb 0.00 in0.0 mm 0.00 in0.0 mm 0.03 in0.8 mm
03:42 PM 45.1°F7.3°C 34.0°F1.1°C 65% 3.0 mph SW4.8 kmh SW 6.0 mph9.7 kmh 29.63 in1003.4 mb 0.00 in0.0 mm 0.00 in0.0 mm 0.03 in0.8 mm
03:45 PM 45.0°F7.2°C 34.0°F1.1°C 65% 3.0 mph SW4.8 kmh SW 6.0 mph9.7 kmh 29.63 in1003.4 mb 0.00 in0.0 mm 0.00 in0.0 mm 0.03 in0.8 mm
03:48 PM 45.0°F7.2°C 34.2°F1.2°C 66% 3.0 mph SW4.8 kmh SW 6.0 mph9.7 kmh 29.63 in1003.4 mb 0.00 in0.0 mm 0.00 in0.0 mm 0.03 in0.8 mm
03:51 PM 44.6°F7.0°C 33.1°F0.6°C 64% 3.0 mph WSW4.8 kmh WSW 7.0 mph11.3 kmh 29.63 in1003.4 mb 0.01 in0.3 mm 0.20 in5.1 mm 0.04 in1.0 mm
03:54 PM 44.4°F6.9°C 33.4°F0.8°C 65% 3.0 mph WSW4.8 kmh WSW 8.0 mph12.9 kmh 29.64 in1003.7 mb 0.01 in0.3 mm 0.00 in0.0 mm 0.04 in1.0 mm
03:57 PM 44.2°F6.8°C 33.3°F0.7°C 65% 3.0 mph WSW4.8 kmh WSW 8.0 mph12.9 kmh 29.64 in1003.7 mb 0.01 in0.3 mm 0.00 in0.0 mm 0.04 in1.0 mm
04:00 PM 44.1°F6.7°C 33.1°F0.6°C 65% 4.0 mph WSW6.4 kmh WSW 9.0 mph14.5 kmh 29.64 in1003.7 mb 0.01 in0.3 mm 0.00 in0.0 mm 0.04 in1.0 mm
04:03 PM 44.1°F6.7°C 33.4°F0.8°C 66% 4.0 mph WSW6.4 kmh WSW 9.0 mph14.5 kmh 29.64 in1003.7 mb 0.01 in0.3 mm 0.00 in0.0 mm 0.04 in1.0 mm
04:06 PM 44.1°F6.7°C 33.4°F0.8°C 66% 4.0 mph WSW6.4 kmh WSW 9.0 mph14.5 kmh 29.64 in1003.7 mb 0.01 in0.3 mm 0.00 in0.0 mm 0.04 in1.0 mm
04:09 PM 44.2°F6.8°C 33.3°F0.7°C 65% 4.0 mph W6.4 kmh W 8.0 mph12.9 kmh 29.64 in1003.7 mb 0.01 in0.3 mm 0.00 in0.0 mm 0.04 in1.0 mm
04:10 PM 44.1°F6.7°C 33.1°F0.6°C 65% 4.0 mph W6.4 kmh W 7.0 mph11.3 kmh 29.64 in1003.7 mb 0.01 in0.3 mm 0.00 in0.0 mm 0.04 in1.0 mm
04:11 PM 44.2°F6.8°C 33.2°F0.7°C 65% 5.0 mph WSW8.0 kmh WSW 7.0 mph11.3 kmh 29.64 in1003.7 mb 0.01 in0.3 mm 0.00 in0.0 mm 0.04 in1.0 mm
04:12 PM 44.2°F6.8°C 33.2°F0.7°C 65% 5.0 mph WSW8.0 kmh WSW 7.0 mph11.3 kmh 29.64 in1003.7 mb 0.01 in0.3 mm 0.00 in0.0 mm 0.04 in1.0 mm
04:13 PM 44.2°F6.8°C 33.2°F0.7°C 65% 5.0 mph WSW8.0 kmh WSW 7.0 mph11.3 kmh 29.64 in1003.7 mb 0.01 in0.3 mm 0.00 in0.0 mm 0.04 in1.0 mm
04:14 PM 44.2°F6.8°C 33.2°F0.7°C 65% 5.0 mph WSW8.0 kmh WSW 7.0 mph11.3 kmh 29.64 in1003.7 mb 0.01 in0.3 mm 0.00 in0.0 mm 0.04 in1.0 mm
04:15 PM 44.2°F6.8°C 33.2°F0.7°C 65% 5.0 mph WSW8.0 kmh WSW 7.0 mph11.3 kmh 29.64 in1003.7 mb 0.01 in0.3 mm 0.00 in0.0 mm 0.04 in1.0 mm
04:18 PM 44.2°F6.8°C 33.3°F0.7°C 65% 2.0 mph WSW3.2 kmh WSW 7.0 mph11.3 kmh 29.64 in1003.7 mb 0.01 in0.3 mm 0.00 in0.0 mm 0.04 in1.0 mm
04:21 PM 44.4°F6.9°C 33.1°F0.6°C 64% 3.0 mph WSW4.8 kmh WSW 10.0 mph16.1 kmh 29.64 in1003.7 mb 0.01 in0.3 mm 0.00 in0.0 mm 0.04 in1.0 mm
04:24 PM 44.6°F7.0°C 32.7°F0.4°C 63% 3.0 mph WSW4.8 kmh WSW 10.0 mph16.1 kmh 29.64 in1003.7 mb 0.01 in0.3 mm 0.00 in0.0 mm 0.04 in1.0 mm
04:27 PM 44.4°F6.9°C 32.5°F0.3°C 63% 3.0 mph WSW4.8 kmh WSW 10.0 mph16.1 kmh 29.64 in1003.7 mb 0.01 in0.3 mm 0.00 in0.0 mm 0.04 in1.0 mm
04:30 PM 44.4°F6.9°C 32.5°F0.3°C 63% 3.0 mph W4.8 kmh W 7.0 mph11.3 kmh 29.64 in1003.7 mb 0.01 in0.3 mm 0.00 in0.0 mm 0.04 in1.0 mm
04:33 PM 44.2°F6.8°C 32.0°F0.0°C 62% 3.0 mph W4.8 kmh W 9.0 mph14.5 kmh 29.64 in1003.7 mb 0.01 in0.3 mm 0.00 in0.0 mm 0.04 in1.0 mm
04:36 PM 44.1°F6.7°C 32.4°F0.2°C 63% 3.0 mph W4.8 kmh W 9.0 mph14.5 kmh 29.64 in1003.7 mb 0.01 in0.3 mm 0.00 in0.0 mm 0.04 in1.0 mm
04:39 PM 44.1°F6.7°C 32.4°F0.2°C 63% 4.0 mph WSW6.4 kmh WSW 9.0 mph14.5 kmh 29.64 in1003.7 mb 0.01 in0.3 mm 0.00 in0.0 mm 0.04 in1.0 mm
04:42 PM 44.1°F6.7°C 32.7°F0.4°C 64% 3.0 mph WSW4.8 kmh WSW 8.0 mph12.9 kmh 29.64 in1003.7 mb 0.01 in0.3 mm 0.00 in0.0 mm 0.04 in1.0 mm
04:45 PM 44.1°F6.7°C 32.7°F0.4°C 64% 3.0 mph WSW4.8 kmh WSW 8.0 mph12.9 kmh 29.64 in1003.7 mb 0.01 in0.3 mm 0.00 in0.0 mm 0.04 in1.0 mm
04:48 PM 44.1°F6.7°C 33.1°F0.6°C 65% 3.0 mph WSW4.8 kmh WSW 8.0 mph12.9 kmh 29.64 in1003.7 mb 0.01 in0.3 mm 0.00 in0.0 mm 0.04 in1.0 mm
04:51 PM 44.1°F6.7°C 33.1°F0.6°C 65% 3.0 mph SW4.8 kmh SW 8.0 mph12.9 kmh 29.64 in1003.7 mb 0.00 in0.0 mm 0.00 in0.0 mm 0.04 in1.0 mm
04:54 PM 44.1°F6.7°C 32.9°F0.5°C 65% 3.0 mph SW4.8 kmh SW 7.0 mph11.3 kmh 29.64 in1003.7 mb 0.00 in0.0 mm 0.00 in0.0 mm 0.04 in1.0 mm
04:57 PM 43.7°F6.5°C 32.7°F0.4°C 65% 4.0 mph WSW6.4 kmh WSW 11.0 mph17.7 kmh 29.64 in1003.7 mb 0.00 in0.0 mm 0.00 in0.0 mm 0.04 in1.0 mm
05:00 PM 43.3°F6.3°C 32.4°F0.2°C 65% 5.0 mph WSW8.0 kmh WSW 11.0 mph17.7 kmh 29.64 in1003.7 mb 0.00 in0.0 mm 0.00 in0.0 mm 0.04 in1.0 mm
05:03 PM 43.0°F6.1°C 32.0°F0.0°C 65% 5.0 mph WSW8.0 kmh WSW 11.0 mph17.7 kmh 29.64 in1003.7 mb 0.00 in0.0 mm 0.00 in0.0 mm 0.04 in1.0 mm
05:06 PM 42.6°F5.9°C 32.2°F0.1°C 66% 5.0 mph WSW8.0 kmh WSW 10.0 mph16.1 kmh 29.64 in1003.7 mb 0.00 in0.0 mm 0.00 in0.0 mm 0.04 in1.0 mm
05:09 PM 42.4°F5.8°C 32.2°F0.1°C 67% 4.0 mph WSW6.4 kmh WSW 10.0 mph16.1 kmh 29.64 in1003.7 mb 0.00 in0.0 mm 0.00 in0.0 mm 0.04 in1.0 mm
05:12 PM 42.3°F5.7°C 32.4°F0.2°C 68% 4.0 mph WSW6.4 kmh WSW 8.0 mph12.9 kmh 29.64 in1003.7 mb 0.00 in0.0 mm 0.00 in0.0 mm 0.04 in1.0 mm
05:15 PM 41.9°F5.5°C 32.2°F0.1°C 68% 4.0 mph WSW6.4 kmh WSW 8.0 mph12.9 kmh 29.64 in1003.7 mb 0.00 in0.0 mm 0.00 in0.0 mm 0.04 in1.0 mm
05:18 PM 41.7°F5.4°C 32.4°F0.2°C 69% 4.0 mph WSW6.4 kmh WSW 8.0 mph12.9 kmh 29.64 in1003.7 mb 0.00 in0.0 mm 0.00 in0.0 mm 0.04 in1.0 mm
05:21 PM 41.5°F5.3°C 32.0°F0.0°C 69% 4.0 mph WSW6.4 kmh WSW 8.0 mph12.9 kmh 29.64 in1003.7 mb 0.00 in0.0 mm 0.00 in0.0 mm 0.04 in1.0 mm
05:24 PM 41.4°F5.2°C 32.2°F0.1°C 70% 4.0 mph WSW6.4 kmh WSW 8.0 mph12.9 kmh 29.64 in1003.7 mb 0.00 in0.0 mm 0.00 in0.0 mm 0.04 in1.0 mm
05:27 PM 41.2°F5.1°C 32.0°F0.0°C 70% 4.0 mph SW6.4 kmh SW 9.0 mph14.5 kmh 29.64 in1003.7 mb 0.00 in0.0 mm 0.00 in0.0 mm 0.04 in1.0 mm
05:30 PM 40.8°F4.9°C 32.2°F0.1°C 71% 4.0 mph SW6.4 kmh SW 9.0 mph14.5 kmh 29.65 in1004.1 mb 0.00 in0.0 mm 0.00 in0.0 mm 0.04 in1.0 mm
05:33 PM 40.8°F4.9°C 32.2°F0.1°C 71% 4.0 mph SW6.4 kmh SW 9.0 mph14.5 kmh 29.64 in1003.7 mb 0.00 in0.0 mm 0.00 in0.0 mm 0.04 in1.0 mm
05:36 PM 40.8°F4.9°C 32.5°F0.3°C 72% 5.0 mph SSW8.0 kmh SSW 12.0 mph19.3 kmh 29.65 in1004.1 mb 0.00 in0.0 mm 0.00 in0.0 mm 0.04 in1.0 mm
05:39 PM 40.8°F4.9°C 32.9°F0.5°C 73% 6.0 mph SW9.7 kmh SW 14.0 mph22.5 kmh 29.65 in1004.1 mb 0.00 in0.0 mm 0.00 in0.0 mm 0.04 in1.0 mm
05:42 PM 40.6°F4.8°C 32.9°F0.5°C 74% 6.0 mph SW9.7 kmh SW 14.0 mph22.5 kmh 29.65 in1004.1 mb 0.00 in0.0 mm 0.00 in0.0 mm 0.04 in1.0 mm
05:45 PM 40.3°F4.6°C 33.1°F0.6°C 75% 6.0 mph SW9.7 kmh SW 14.0 mph22.5 kmh 29.65 in1004.1 mb 0.00 in0.0 mm 0.00 in0.0 mm 0.04 in1.0 mm
05:48 PM 40.1°F4.5°C 33.1°F0.6°C 76% 6.0 mph SW9.7 kmh SW 11.0 mph17.7 kmh 29.65 in1004.1 mb 0.00 in0.0 mm 0.00 in0.0 mm 0.04 in1.0 mm
05:51 PM 39.9°F4.4°C 32.9°F0.5°C 76% 5.0 mph SSW8.0 kmh SSW 9.0 mph14.5 kmh 29.65 in1004.1 mb 0.00 in0.0 mm 0.00 in0.0 mm 0.04 in1.0 mm
05:54 PM 39.7°F4.3°C 33.1°F0.6°C 77% 5.0 mph SSW8.0 kmh SSW 9.0 mph14.5 kmh 29.65 in1004.1 mb 0.00 in0.0 mm 0.00 in0.0 mm 0.04 in1.0 mm
05:57 PM 39.6°F4.2°C 32.9°F0.5°C 77% 4.0 mph S6.4 kmh S 9.0 mph14.5 kmh 29.65 in1004.1 mb 0.00 in0.0 mm 0.00 in0.0 mm 0.04 in1.0 mm
06:00 PM 39.4°F4.1°C 33.1°F0.6°C 78% 4.0 mph S6.4 kmh S 7.0 mph11.3 kmh 29.65 in1004.1 mb 0.00 in0.0 mm 0.00 in0.0 mm 0.04 in1.0 mm
06:03 PM 39.4°F4.1°C 33.1°F0.6°C 78% 3.0 mph SSW4.8 kmh SSW 7.0 mph11.3 kmh 29.65 in1004.1 mb 0.00 in0.0 mm 0.00 in0.0 mm 0.04 in1.0 mm
06:06 PM 39.0°F3.9°C 32.9°F0.5°C 78% 3.0 mph SW4.8 kmh SW 7.0 mph11.3 kmh 29.65 in1004.1 mb 0.00 in0.0 mm 0.00 in0.0 mm 0.04 in1.0 mm
06:09 PM 38.8°F3.8°C 32.5°F0.3°C 78% 2.0 mph SW3.2 kmh SW 5.0 mph8.0 kmh 29.65 in1004.1 mb 0.00 in0.0 mm 0.00 in0.0 mm 0.04 in1.0 mm
06:12 PM 38.7°F3.7°C 32.7°F0.4°C 79% 2.0 mph SSW3.2 kmh SSW 5.0 mph8.0 kmh 29.65 in1004.1 mb 0.00 in0.0 mm 0.00 in0.0 mm 0.04 in1.0 mm
06:15 PM 38.7°F3.7°C 32.7°F0.4°C 79% 2.0 mph SSW3.2 kmh SSW 5.0 mph8.0 kmh 29.65 in1004.1 mb 0.00 in0.0 mm 0.00 in0.0 mm 0.04 in1.0 mm
06:18 PM 38.5°F3.6°C 32.5°F0.3°C 79% 2.0 mph SSW3.2 kmh SSW 5.0 mph8.0 kmh 29.65 in1004.1 mb 0.00 in0.0 mm 0.00 in0.0 mm 0.04 in1.0 mm
06:21 PM 38.5°F3.6°C 32.5°F0.3°C 79% 3.0 mph S4.8 kmh S 6.0 mph9.7 kmh 29.65 in1004.1 mb 0.00 in0.0 mm 0.00 in0.0 mm 0.04 in1.0 mm
06:24 PM 38.5°F3.6°C 32.9°F0.5°C 80% 3.0 mph S4.8 kmh S 7.0 mph11.3 kmh 29.65 in1004.1 mb 0.00 in0.0 mm 0.00 in0.0 mm 0.04 in1.0 mm
06:27 PM 38.5°F3.6°C 32.9°F0.5°C 80% 4.0 mph S6.4 kmh S 7.0 mph11.3 kmh 29.65 in1004.1 mb 0.00 in0.0 mm 0.00 in0.0 mm 0.04 in1.0 mm
06:30 PM 38.5°F3.6°C 32.9°F0.5°C 80% 4.0 mph S6.4 kmh S 7.0 mph11.3 kmh 29.65 in1004.1 mb 0.00 in0.0 mm 0.00 in0.0 mm 0.04 in1.0 mm
06:33 PM 38.5°F3.6°C 32.9°F0.5°C 80% 3.0 mph S4.8 kmh S 7.0 mph11.3 kmh 29.65 in1004.1 mb 0.00 in0.0 mm 0.00 in0.0 mm 0.04 in1.0 mm
06:36 PM 38.3°F3.5°C 32.7°F0.4°C 80% 3.0 mph SSW4.8 kmh SSW 6.0 mph9.7 kmh 29.65 in1004.1 mb 0.00 in0.0 mm 0.00 in0.0 mm 0.04 in1.0 mm
06:39 PM 38.1°F3.4°C 32.5°F0.3°C 80% 2.0 mph SW3.2 kmh SW 5.0 mph8.0 kmh 29.65 in1004.1 mb 0.00 in0.0 mm 0.00 in0.0 mm 0.04 in1.0 mm
06:42 PM 37.9°F3.3°C 32.4°F0.2°C 80% 2.0 mph SW3.2 kmh SW 5.0 mph8.0 kmh 29.65 in1004.1 mb 0.00 in0.0 mm 0.00 in0.0 mm 0.04 in1.0 mm
06:45 PM 37.8°F3.2°C 32.2°F0.1°C 80% 2.0 mph SW3.2 kmh SW 5.0 mph8.0 kmh 29.65 in1004.1 mb 0.00 in0.0 mm 0.00 in0.0 mm 0.04 in1.0 mm
06:48 PM 37.6°F3.1°C 32.0°F0.0°C 80% 2.0 mph SW3.2 kmh SW 5.0 mph8.0 kmh 29.65 in1004.1 mb 0.00 in0.0 mm 0.00 in0.0 mm 0.04 in1.0 mm
06:51 PM 37.2°F2.9°C 32.0°F0.0°C 81% 2.0 mph SW3.2 kmh SW 5.0 mph8.0 kmh 29.65 in1004.1 mb 0.00 in0.0 mm 0.00 in0.0 mm 0.04 in1.0 mm
06:54 PM 37.0°F2.8°C 31.8°F-0.1°C 81% 2.0 mph SW3.2 kmh SW 5.0 mph8.0 kmh 29.65 in1004.1 mb 0.00 in0.0 mm 0.00 in0.0 mm 0.04 in1.0 mm
06:57 PM 36.9°F2.7°C 31.5°F-0.3°C 81% 2.0 mph SW3.2 kmh SW 5.0 mph8.0 kmh 29.65 in1004.1 mb 0.00 in0.0 mm 0.00 in0.0 mm 0.04 in1.0 mm
07:00 PM 36.5°F2.5°C 31.3°F-0.4°C 81% 2.0 mph SSW3.2 kmh SSW 4.0 mph6.4 kmh 29.65 in1004.1 mb 0.00 in0.0 mm 0.00 in0.0 mm 0.04 in1.0 mm
07:03 PM 36.1°F2.3°C 30.9°F-0.6°C 81% 2.0 mph SSW3.2 kmh SSW 4.0 mph6.4 kmh 29.65 in1004.1 mb 0.00 in0.0 mm 0.00 in0.0 mm 0.04 in1.0 mm
07:06 PM 35.8°F2.1°C 30.6°F-0.8°C 81% 2.0 mph SSW3.2 kmh SSW 5.0 mph8.0 kmh 29.65 in1004.1 mb 0.00 in0.0 mm 0.00 in0.0 mm 0.04 in1.0 mm
07:09 PM 35.8°F2.1°C 31.1°F-0.5°C 83% 3.0 mph SSW4.8 kmh SSW 9.0 mph14.5 kmh 29.65 in1004.1 mb 0.00 in0.0 mm 0.00 in0.0 mm 0.04 in1.0 mm
07:12 PM 36.0°F2.2°C 31.5°F-0.3°C 84% 3.0 mph SSW4.8 kmh SSW 9.0 mph14.5 kmh 29.65 in1004.1 mb 0.00 in0.0 mm 0.00 in0.0 mm 0.04 in1.0 mm
07:15 PM 36.1°F2.3°C 32.2°F0.1°C 85% 4.0 mph SW6.4 kmh SW 9.0 mph14.5 kmh 29.64 in1003.7 mb 0.00 in0.0 mm 0.00 in0.0 mm 0.04 in1.0 mm
07:18 PM 36.3°F2.4°C 32.4°F0.2°C 85% 3.0 mph SSW4.8 kmh SSW 9.0 mph14.5 kmh 29.64 in1003.7 mb 0.00 in0.0 mm 0.00 in0.0 mm 0.04 in1.0 mm
07:21 PM 36.7°F2.6°C 32.7°F0.4°C 86% 3.0 mph SW4.8 kmh SW 7.0 mph11.3 kmh 29.64 in1003.7 mb 0.00 in0.0 mm 0.00 in0.0 mm 0.04 in1.0 mm
07:24 PM 36.7°F2.6°C 32.9°F0.5°C 86% 3.0 mph SW4.8 kmh SW 7.0 mph11.3 kmh 29.64 in1003.7 mb 0.00 in0.0 mm 0.00 in0.0 mm 0.04 in1.0 mm
07:27 PM 36.9°F2.7°C 33.1°F0.6°C 86% 3.0 mph SW4.8 kmh SW 7.0 mph11.3 kmh 29.64 in1003.7 mb 0.00 in0.0 mm 0.00 in0.0 mm 0.04 in1.0 mm
07:30 PM 36.9°F2.7°C 32.9°F0.5°C 85% 3.0 mph SW4.8 kmh SW 7.0 mph11.3 kmh 29.64 in1003.7 mb 0.00 in0.0 mm 0.00 in0.0 mm 0.04 in1.0 mm
07:33 PM 37.0°F2.8°C 32.9°F0.5°C 85% 4.0 mph SSW6.4 kmh SSW 7.0 mph11.3 kmh 29.64 in1003.7 mb 0.00 in0.0 mm 0.00 in0.0 mm 0.04 in1.0 mm
07:36 PM 37.0°F2.8°C 32.9°F0.5°C 85% 4.0 mph SSW6.4 kmh SSW 7.0 mph11.3 kmh 29.63 in1003.4 mb 0.00 in0.0 mm 0.00 in0.0 mm 0.04 in1.0 mm
07:39 PM 37.0°F2.8°C 32.9°F0.5°C 85% 4.0 mph S6.4 kmh S 7.0 mph11.3 kmh 29.64 in1003.7 mb 0.00 in0.0 mm 0.00 in0.0 mm 0.04 in1.0 mm
07:42 PM 37.2°F2.9°C 33.1°F0.6°C 85% 4.0 mph S6.4 kmh S 8.0 mph12.9 kmh 29.64 in1003.7 mb 0.00 in0.0 mm 0.00 in0.0 mm 0.04 in1.0 mm
07:45 PM 37.2°F2.9°C 33.4°F0.8°C 86% 4.0 mph SSW6.4 kmh SSW 8.0 mph12.9 kmh 29.63 in1003.4 mb 0.00 in0.0 mm 0.00 in0.0 mm 0.04 in1.0 mm
07:48 PM 37.2°F2.9°C 33.4°F0.8°C 86% 4.0 mph SSW6.4 kmh SSW 8.0 mph12.9 kmh 29.63 in1003.4 mb 0.00 in0.0 mm 0.00 in0.0 mm 0.04 in1.0 mm
07:51 PM 37.4°F3.0°C 33.6°F0.9°C 86% 4.0 mph SW6.4 kmh SW 7.0 mph11.3 kmh 29.63 in1003.4 mb 0.00 in0.0 mm 0.00 in0.0 mm 0.04 in1.0 mm
07:54 PM 37.4°F3.0°C 33.3°F0.7°C 85% 4.0 mph SW6.4 kmh SW 7.0 mph11.3 kmh 29.63 in1003.4 mb 0.00 in0.0 mm 0.00 in0.0 mm 0.04 in1.0 mm
07:57 PM 37.6°F3.1°C 33.4°F0.8°C 85% 4.0 mph SSW6.4 kmh SSW 7.0 mph11.3 kmh 29.63 in1003.4 mb 0.00 in0.0 mm 0.00 in0.0 mm 0.04 in1.0 mm
08:00 PM 37.6°F3.1°C 33.4°F0.8°C 85% 4.0 mph S6.4 kmh S 7.0 mph11.3 kmh 29.63 in1003.4 mb 0.00 in0.0 mm 0.00 in0.0 mm 0.04 in1.0 mm
08:03 PM 37.6°F3.1°C 33.4°F0.8°C 85% 4.0 mph S6.4 kmh S 8.0 mph12.9 kmh 29.63 in1003.4 mb 0.00 in0.0 mm 0.00 in0.0 mm 0.04 in1.0 mm
08:06 PM 37.6°F3.1°C 33.4°F0.8°C 85% 5.0 mph S8.0 kmh S 8.0 mph12.9 kmh 29.62 in1003.0 mb 0.00 in0.0 mm 0.00 in0.0 mm 0.04 in1.0 mm
08:09 PM 37.6°F3.1°C 33.4°F0.8°C 85% 5.0 mph S8.0 kmh S 8.0 mph12.9 kmh 29.62 in1003.0 mb 0.00 in0.0 mm 0.00 in0.0 mm 0.04 in1.0 mm
08:12 PM 37.6°F3.1°C 33.4°F0.8°C 85% 5.0 mph S8.0 kmh S 9.0 mph14.5 kmh 29.62 in1003.0 mb 0.00 in0.0 mm 0.00 in0.0 mm 0.04 in1.0 mm
08:15 PM 37.8°F3.2°C 33.6°F0.9°C 85% 6.0 mph S9.7 kmh S 11.0 mph17.7 kmh 29.62 in1003.0 mb 0.00 in0.0 mm 0.00 in0.0 mm 0.04 in1.0 mm
08:18 PM 37.8°F3.2°C 33.6°F0.9°C 85% 7.0 mph S11.3 kmh S 14.0 mph22.5 kmh 29.62 in1003.0 mb 0.00 in0.0 mm 0.00 in0.0 mm 0.04 in1.0 mm
08:21 PM 38.1°F3.4°C 34.0°F1.1°C 85% 8.0 mph S12.9 kmh S 14.0 mph22.5 kmh 29.61 in1002.7 mb 0.00 in0.0 mm 0.00 in0.0 mm 0.04 in1.0 mm
08:24 PM 38.3°F3.5°C 34.2°F1.2°C 85% 9.0 mph S14.5 kmh S 14.0 mph22.5 kmh 29.61 in1002.7 mb 0.00 in0.0 mm 0.00 in0.0 mm 0.04 in1.0 mm
08:27 PM 38.7°F3.7°C 34.2°F1.2°C 84% 10.0 mph S16.1 kmh S 15.0 mph24.1 kmh 29.61 in1002.7 mb 0.00 in0.0 mm 0.00 in0.0 mm 0.04 in1.0 mm
08:30 PM 38.8°F3.8°C 34.2°F1.2°C 83% 10.0 mph S16.1 kmh S 15.0 mph24.1 kmh 29.61 in1002.7 mb 0.00 in0.0 mm 0.00 in0.0 mm 0.04 in1.0 mm
08:33 PM 39.2°F4.0°C 34.5°F1.4°C 83% 10.0 mph S16.1 kmh S 16.0 mph25.7 kmh 29.60 in1002.4 mb 0.00 in0.0 mm 0.00 in0.0 mm 0.04 in1.0 mm
08:36 PM 39.4°F4.1°C 34.3°F1.3°C 82% 10.0 mph S16.1 kmh S 16.0 mph25.7 kmh 29.60 in1002.4 mb 0.00 in0.0 mm 0.00 in0.0 mm 0.04 in1.0 mm
08:39 PM 39.6°F4.2°C 34.5°F1.4°C 82% 11.0 mph S17.7 kmh S 16.0 mph25.7 kmh 29.60 in1002.4 mb 0.00 in0.0 mm 0.00 in0.0 mm 0.04 in1.0 mm
08:42 PM 39.7°F4.3°C 34.5°F1.4°C 81% 12.0 mph S19.3 kmh S 20.0 mph32.2 kmh 29.59 in1002.0 mb 0.00 in0.0 mm 0.00 in0.0 mm 0.04 in1.0 mm
08:45 PM 40.1°F4.5°C 34.3°F1.3°C 80% 13.0 mph S20.9 kmh S 22.0 mph35.4 kmh 29.59 in1002.0 mb 0.00 in0.0 mm 0.00 in0.0 mm 0.04 in1.0 mm
08:48 PM 40.5°F4.7°C 34.7°F1.5°C 80% 13.0 mph S20.9 kmh S 22.0 mph35.4 kmh 29.59 in1002.0 mb 0.00 in0.0 mm 0.00 in0.0 mm 0.04 in1.0 mm
08:51 PM 40.6°F4.8°C 34.5°F1.4°C 79% 13.0 mph S20.9 kmh S 22.0 mph35.4 kmh 29.59 in1002.0 mb 0.00 in0.0 mm 0.00 in0.0 mm 0.04 in1.0 mm
08:54 PM 40.8°F4.9°C 34.9°F1.6°C 79% 13.0 mph S20.9 kmh S 24.0 mph38.6 kmh 29.59 in1002.0 mb 0.00 in0.0 mm 0.00 in0.0 mm 0.04 in1.0 mm
08:57 PM 41.2°F5.1°C 35.1°F1.7°C 79% 13.0 mph S20.9 kmh S 24.0 mph38.6 kmh 29.59 in1002.0 mb 0.00 in0.0 mm 0.00 in0.0 mm 0.04 in1.0 mm
09:00 PM 41.4°F5.2°C 35.2°F1.8°C 79% 13.0 mph S20.9 kmh S 24.0 mph38.6 kmh 29.58 in1001.7 mb 0.00 in0.0 mm 0.00 in0.0 mm 0.04 in1.0 mm
09:03 PM 41.4°F5.2°C 35.4°F1.9°C 79% 14.0 mph S22.5 kmh S 24.0 mph38.6 kmh 29.58 in1001.7 mb 0.00 in0.0 mm 0.00 in0.0 mm 0.04 in1.0 mm
09:06 PM 41.5°F5.3°C 35.2°F1.8°C 78% 15.0 mph S24.1 kmh S 24.0 mph38.6 kmh 29.58 in1001.7 mb 0.00 in0.0 mm 0.00 in0.0 mm 0.04 in1.0 mm
09:09 PM 41.7°F5.4°C 35.1°F1.7°C 77% 16.0 mph S25.7 kmh S 26.0 mph41.8 kmh 29.58 in1001.7 mb 0.00 in0.0 mm 0.00 in0.0 mm 0.04 in1.0 mm
09:12 PM 41.7°F5.4°C 35.1°F1.7°C 77% 17.0 mph S27.4 kmh S 26.0 mph41.8 kmh 29.57 in1001.4 mb 0.00 in0.0 mm 0.00 in0.0 mm 0.04 in1.0 mm
09:15 PM 41.7°F5.4°C 35.1°F1.7°C 77% 17.0 mph S27.4 kmh S 26.0 mph41.8 kmh 29.58 in1001.7 mb 0.00 in0.0 mm 0.00 in0.0 mm 0.04 in1.0 mm
09:18 PM 41.7°F5.4°C 35.1°F1.7°C 77% 17.0 mph S27.4 kmh S 27.0 mph43.5 kmh 29.58 in1001.7 mb 0.00 in0.0 mm 0.00 in0.0 mm 0.04 in1.0 mm
09:21 PM 41.7°F5.4°C 35.1°F1.7°C 77% 16.0 mph S25.7 kmh S 27.0 mph43.5 kmh 29.58 in1001.7 mb 0.00 in0.0 mm 0.00 in0.0 mm 0.04 in1.0 mm
09:24 PM 41.7°F5.4°C 35.4°F1.9°C 78% 15.0 mph S24.1 kmh S 27.0 mph43.5 kmh 29.58 in1001.7 mb 0.00 in0.0 mm 0.00 in0.0 mm 0.04 in1.0 mm
09:27 PM 41.9°F5.5°C 35.6°F2.0°C 78% 14.0 mph S22.5 kmh S 24.0 mph38.6 kmh 29.58 in1001.7 mb 0.00 in0.0 mm 0.00 in0.0 mm 0.04 in1.0 mm
09:30 PM 41.9°F5.5°C 35.8°F2.1°C 79% 14.0 mph S22.5 kmh S 23.0 mph37.0 kmh 29.58 in1001.7 mb 0.00 in0.0 mm 0.00 in0.0 mm 0.04 in1.0 mm
09:33 PM 41.9°F5.5°C 35.8°F2.1°C 79% 14.0 mph S22.5 kmh S 26.0 mph41.8 kmh 29.57 in1001.4 mb 0.00 in0.0 mm 0.00 in0.0 mm 0.04 in1.0 mm
09:36 PM 42.1°F5.6°C 35.6°F2.0°C 78% 16.0 mph S25.7 kmh S 26.0 mph41.8 kmh 29.57 in1001.4 mb 0.00 in0.0 mm 0.00 in0.0 mm 0.04 in1.0 mm
09:39 PM 42.1°F5.6°C 35.4°F1.9°C 77% 17.0 mph S27.4 kmh S 26.0 mph41.8 kmh 29.57 in1001.4 mb 0.00 in0.0 mm 0.00 in0.0 mm 0.04 in1.0 mm
09:42 PM 42.1°F5.6°C 35.4°F1.9°C 77% 17.0 mph S27.4 kmh S 26.0 mph41.8 kmh 29.57 in1001.4 mb 0.00 in0.0 mm 0.00 in0.0 mm 0.04 in1.0 mm
09:45 PM 42.3°F5.7°C 36.0°F2.2°C 78% 18.0 mph S29.0 kmh S 26.0 mph41.8 kmh 29.56 in1001.0 mb 0.00 in0.0 mm 0.00 in0.0 mm 0.04 in1.0 mm
09:48 PM 42.3°F5.7°C 35.6°F2.0°C 77% 18.0 mph S29.0 kmh S 27.0 mph43.5 kmh 29.56 in1001.0 mb 0.00 in0.0 mm 0.00 in0.0 mm 0.04 in1.0 mm
09:51 PM 42.3°F5.7°C 35.6°F2.0°C 77% 19.0 mph S30.6 kmh S 27.0 mph43.5 kmh 29.56 in1001.0 mb 0.00 in0.0 mm 0.00 in0.0 mm 0.04 in1.0 mm
09:54 PM 42.3°F5.7°C 36.0°F2.2°C 78% 19.0 mph S30.6 kmh S 27.0 mph43.5 kmh 29.56 in1001.0 mb 0.00 in0.0 mm 0.00 in0.0 mm 0.04 in1.0 mm
09:57 PM 42.3°F5.7°C 35.8°F2.1°C 78% 19.0 mph S30.6 kmh S 26.0 mph41.8 kmh 29.56 in1001.0 mb 0.00 in0.0 mm 0.00 in0.0 mm 0.04 in1.0 mm
10:00 PM 42.3°F5.7°C 35.8°F2.1°C 78% 19.0 mph S30.6 kmh S 27.0 mph43.5 kmh 29.56 in1001.0 mb 0.00 in0.0 mm 0.00 in0.0 mm 0.04 in1.0 mm
10:03 PM 42.3°F5.7°C 35.8°F2.1°C 78% 18.0 mph S29.0 kmh S 27.0 mph43.5 kmh 29.56 in1001.0 mb 0.00 in0.0 mm 0.00 in0.0 mm 0.04 in1.0 mm
10:06 PM 42.1°F5.6°C 36.1°F2.3°C 79% 18.0 mph S29.0 kmh S 29.0 mph46.7 kmh 29.56 in1001.0 mb 0.00 in0.0 mm 0.00 in0.0 mm 0.04 in1.0 mm
10:09 PM 42.1°F5.6°C 36.1°F2.3°C 79% 17.0 mph S27.4 kmh S 29.0 mph46.7 kmh 29.55 in1000.7 mb 0.00 in0.0 mm 0.00 in0.0 mm 0.04 in1.0 mm
10:12 PM 42.1°F5.6°C 36.3°F2.4°C 80% 17.0 mph S27.4 kmh S 29.0 mph46.7 kmh 29.55 in1000.7 mb 0.00 in0.0 mm 0.00 in0.0 mm 0.04 in1.0 mm
10:15 PM 42.3°F5.7°C 36.5°F2.5°C 80% 17.0 mph S27.4 kmh S 28.0 mph45.1 kmh 29.55 in1000.7 mb 0.00 in0.0 mm 0.00 in0.0 mm 0.04 in1.0 mm
10:18 PM 42.3°F5.7°C 36.1°F2.3°C 79% 17.0 mph S27.4 kmh S 28.0 mph45.1 kmh 29.55 in1000.7 mb 0.00 in0.0 mm 0.00 in0.0 mm 0.04 in1.0 mm
10:21 PM 42.3°F5.7°C 36.0°F2.2°C 78% 18.0 mph S29.0 kmh S 28.0 mph45.1 kmh 29.55 in1000.7 mb 0.00 in0.0 mm 0.00 in0.0 mm 0.04 in1.0 mm
10:24 PM 42.4°F5.8°C 35.8°F2.1°C 77% 19.0 mph S30.6 kmh S 27.0 mph43.5 kmh 29.54 in1000.3 mb 0.00 in0.0 mm 0.00 in0.0 mm 0.04 in1.0 mm
10:27 PM 42.4°F5.8°C 35.8°F2.1°C 77% 20.0 mph S32.2 kmh S 33.0 mph53.1 kmh 29.54 in1000.3 mb 0.00 in0.0 mm 0.00 in0.0 mm 0.04 in1.0 mm
10:30 PM 42.6°F5.9°C 35.6°F2.0°C 76% 21.0 mph S33.8 kmh S 33.0 mph53.1 kmh 29.54 in1000.3 mb 0.00 in0.0 mm 0.00 in0.0 mm 0.04 in1.0 mm
10:33 PM 42.8°F6.0°C 35.8°F2.1°C 76% 22.0 mph S35.4 kmh S 35.0 mph56.3 kmh 29.53 in1000.0 mb 0.00 in0.0 mm 0.00 in0.0 mm 0.04 in1.0 mm
10:36 PM 43.0°F6.1°C 36.0°F2.2°C 76% 24.0 mph S38.6 kmh S 35.0 mph56.3 kmh 29.53 in1000.0 mb 0.00 in0.0 mm 0.00 in0.0 mm 0.04 in1.0 mm
10:39 PM 43.0°F6.1°C 35.6°F2.0°C 75% 24.0 mph S38.6 kmh S 35.0 mph56.3 kmh 29.53 in1000.0 mb 0.00 in0.0 mm 0.00 in0.0 mm 0.04 in1.0 mm
10:42 PM 43.2°F6.2°C 36.0°F2.2°C 76% 23.0 mph S37.0 kmh S 34.0 mph54.7 kmh 29.53 in1000.0 mb 0.00 in0.0 mm 0.00 in0.0 mm 0.04 in1.0 mm
10:45 PM 43.2°F6.2°C 36.5°F2.5°C 77% 23.0 mph S37.0 kmh S 34.0 mph54.7 kmh 29.53 in1000.0 mb 0.00 in0.0 mm 0.00 in0.0 mm 0.04 in1.0 mm
10:48 PM 43.2°F6.2°C 36.5°F2.5°C 77% 23.0 mph S37.0 kmh S 39.0 mph62.8 kmh 29.52 in999.7 mb 0.00 in0.0 mm 0.00 in0.0 mm 0.04 in1.0 mm
10:51 PM 43.3°F6.3°C 36.9°F2.7°C 78% 24.0 mph S38.6 kmh S 39.0 mph62.8 kmh 29.53 in1000.0 mb 0.00 in0.0 mm 0.00 in0.0 mm 0.04 in1.0 mm
10:54 PM 43.3°F6.3°C 37.2°F2.9°C 79% 23.0 mph S37.0 kmh S 39.0 mph62.8 kmh 29.52 in999.7 mb 0.00 in0.0 mm 0.00 in0.0 mm 0.04 in1.0 mm
10:57 PM 43.3°F6.3°C 37.4°F3.0°C 79% 22.0 mph S35.4 kmh S 36.0 mph57.9 kmh 29.52 in999.7 mb 0.00 in0.0 mm 0.00 in0.0 mm 0.04 in1.0 mm
11:00 PM 43.3°F6.3°C 37.4°F3.0°C 79% 22.0 mph S35.4 kmh S 34.0 mph54.7 kmh 29.52 in999.7 mb 0.00 in0.0 mm 0.00 in0.0 mm 0.04 in1.0 mm
11:03 PM 43.3°F6.3°C 37.0°F2.8°C 78% 22.0 mph S35.4 kmh S 34.0 mph54.7 kmh 29.52 in999.7 mb 0.00 in0.0 mm 0.00 in0.0 mm 0.04 in1.0 mm
11:06 PM 43.3°F6.3°C 36.7°F2.6°C 77% 23.0 mph S37.0 kmh S 35.0 mph56.3 kmh 29.51 in999.3 mb 0.00 in0.0 mm 0.00 in0.0 mm 0.04 in1.0 mm
11:09 PM 43.3°F6.3°C 36.7°F2.6°C 77% 24.0 mph S38.6 kmh S 35.0 mph56.3 kmh 29.51 in999.3 mb 0.00 in0.0 mm 0.00 in0.0 mm 0.04 in1.0 mm
11:12 PM 43.3°F6.3°C 36.7°F2.6°C 77% 24.0 mph S38.6 kmh S 37.0 mph59.5 kmh 29.51 in999.3 mb 0.00 in0.0 mm 0.00 in0.0 mm 0.04 in1.0 mm
11:15 PM 43.5°F6.4°C 36.7°F2.6°C 77% 23.0 mph S37.0 kmh S 37.0 mph59.5 kmh 29.51 in999.3 mb 0.00 in0.0 mm 0.00 in0.0 mm 0.04 in1.0 mm
11:18 PM 43.5°F6.4°C 36.7°F2.6°C 77% 23.0 mph S37.0 kmh S 37.0 mph59.5 kmh 29.51 in999.3 mb 0.00 in0.0 mm 0.00 in0.0 mm 0.04 in1.0 mm
11:21 PM 43.5°F6.4°C 36.5°F2.5°C 76% 24.0 mph S38.6 kmh S 37.0 mph59.5 kmh 29.50 in999.0 mb 0.00 in0.0 mm 0.00 in0.0 mm 0.04 in1.0 mm
11:24 PM 43.5°F6.4°C 36.9°F2.7°C 77% 23.0 mph S37.0 kmh S 37.0 mph59.5 kmh 29.50 in999.0 mb 0.00 in0.0 mm 0.00 in0.0 mm 0.04 in1.0 mm
11:27 PM 43.5°F6.4°C 37.2°F2.9°C 78% 24.0 mph S38.6 kmh S 37.0 mph59.5 kmh 29.50 in999.0 mb 0.00 in0.0 mm 0.00 in0.0 mm 0.04 in1.0 mm
11:30 PM 43.5°F6.4°C 37.0°F2.8°C 78% 23.0 mph S37.0 kmh S 35.0 mph56.3 kmh 29.50 in999.0 mb 0.00 in0.0 mm 0.00 in0.0 mm 0.04 in1.0 mm
11:33 PM 43.5°F6.4°C 37.4°F3.0°C 79% 23.0 mph S37.0 kmh S 37.0 mph59.5 kmh 29.49 in998.6 mb 0.00 in0.0 mm 0.00 in0.0 mm 0.04 in1.0 mm
11:36 PM 43.5°F6.4°C 37.4°F3.0°C 79% 23.0 mph S37.0 kmh S 37.0 mph59.5 kmh 29.49 in998.6 mb 0.00 in0.0 mm 0.00 in0.0 mm 0.04 in1.0 mm
11:39 PM 43.5°F6.4°C 37.4°F3.0°C 79% 24.0 mph S38.6 kmh S 39.0 mph62.8 kmh 29.49 in998.6 mb 0.00 in0.0 mm 0.00 in0.0 mm 0.04 in1.0 mm
11:42 PM 43.5°F6.4°C 37.8°F3.2°C 80% 24.0 mph S38.6 kmh S 39.0 mph62.8 kmh 29.48 in998.3 mb 0.00 in0.0 mm 0.00 in0.0 mm 0.04 in1.0 mm
11:45 PM 43.5°F6.4°C 37.8°F3.2°C 80% 25.0 mph S40.2 kmh S 39.0 mph62.8 kmh 29.48 in998.3 mb 0.00 in0.0 mm 0.00 in0.0 mm 0.04 in1.0 mm
11:48 PM 43.5°F6.4°C 37.6°F3.1°C 79% 24.0 mph S38.6 kmh S 39.0 mph62.8 kmh 29.48 in998.3 mb 0.00 in0.0 mm 0.00 in0.0 mm 0.04 in1.0 mm
11:51 PM 43.7°F6.5°C 37.6°F3.1°C 79% 24.0 mph S38.6 kmh S 38.0 mph61.2 kmh 29.49 in998.6 mb 0.00 in0.0 mm 0.00 in0.0 mm 0.04 in1.0 mm
11:54 PM 43.9°F6.6°C 37.8°F3.2°C 79% 23.0 mph S37.0 kmh S 38.0 mph61.2 kmh 29.49 in998.6 mb 0.00 in0.0 mm 0.00 in0.0 mm 0.04 in1.0 mm
11:57 PM 43.9°F6.6°C 37.8°F3.2°C 79% 23.0 mph S37.0 kmh S 38.0 mph61.2 kmh 29.49 in998.6 mb 0.00 in0.0 mm 0.00 in0.0 mm 0.04 in1.0 mm